Time,TemperatureF,DewpointF,PressureIn,WindDirection,WindDirectionDegrees,WindSpeedMPH,WindSpeedGustMPH,Humidity,HourlyPrecipIn,Conditions,Clouds,dailyrainin,SoftwareType,DateUTC
2013-02-01 00:01:00,22.6,12.6,29.61,West,270,13.6,13.6,65,0.00,,,0.00,WUHU21623XXSP,2013-02-01 05:01:00,
2013-02-01 00:03:00,22.6,12.6,29.61,WNW,292,8.7,13.6,65,0.00,,,0.00,WUHU21623XXSP,2013-02-01 05:03:00,
2013-02-01 00:05:00,22.6,12.6,29.61,WNW,292,8.7,13.6,65,0.00,,,0.00,WUHU21623XXSP,2013-02-01 05:05:00,
2013-02-01 00:07:00,22.6,12.6,29.61,WNW,292,8.7,13.6,65,0.00,,,0.00,WUHU21623XXSP,2013-02-01 05:07:00,
2013-02-01 00:09:00,22.6,12.6,29.61,NW,315,7.2,13.6,65,0.00,,,0.00,WUHU21623XXSP,2013-02-01 05:09:00,
2013-02-01 00:11:00,22.6,12.2,29.62,WSW,247,3.6,8.7,64,0.00,,,0.00,WUHU21623XXSP,2013-02-01 05:11:00,
2013-02-01 00:13:00,22.5,12.0,29.62,WSW,247,3.6,8.7,64,0.00,,,0.00,WUHU21623XXSP,2013-02-01 05:13:00,
2013-02-01 00:16:00,22.5,12.0,29.62,WSW,247,12.5,12.5,64,0.00,,,0.00,WUHU21623XXSP,2013-02-01 05:16:00,
2013-02-01 00:18:00,22.5,12.0,29.62,SW,225,9.2,12.5,64,0.00,,,0.00,WUHU21623XXSP,2013-02-01 05:18:00,
2013-02-01 00:20:00,22.5,12.0,29.62,WNW,292,9.2,12.5,64,0.00,,,0.00,WUHU21623XXSP,2013-02-01 05:20:00,
2013-02-01 00:22:00,22.5,12.0,29.61,WSW,247,10.1,12.5,64,0.00,,,0.00,WUHU21623XXSP,2013-02-01 05:22:00,
2013-02-01 00:24:00,22.3,11.5,29.61,WNW,292,6.9,12.5,63,0.00,,,0.00,WUHU21623XXSP,2013-02-01 05:24:00,
2013-02-01 00:26:00,22.3,11.9,29.61,WNW,292,13.4,13.4,64,0.00,,,0.00,WUHU21623XXSP,2013-02-01 05:26:00,
2013-02-01 00:29:00,22.3,11.5,29.61,West,270,7.4,13.4,63,0.00,,,0.00,WUHU21623XXSP,2013-02-01 05:29:00,
2013-02-01 00:31:00,22.3,11.5,29.61,WSW,247,7.2,13.4,63,0.00,,,0.00,WUHU21623XXSP,2013-02-01 05:31:00,
2013-02-01 00:33:00,22.1,11.4,29.61,NW,315,8.5,13.4,63,0.00,,,0.00,WUHU21623XXSP,2013-02-01 05:33:00,
2013-02-01 00:35:00,22.1,11.7,29.61,WNW,292,3.4,13.4,64,0.00,,,0.00,WUHU21623XXSP,2013-02-01 05:35:00,
2013-02-01 00:37:00,21.9,11.5,29.61,WNW,292,3.4,8.5,64,0.00,,,0.00,WUHU21623XXSP,2013-02-01 05:37:00,
2013-02-01 00:39:00,21.9,11.2,29.61,WSW,247,7.4,8.5,63,0.00,,,0.00,WUHU21623XXSP,2013-02-01 05:39:00,
2013-02-01 00:41:00,21.9,11.2,29.61,WNW,292,10.1,10.1,63,0.00,,,0.00,WUHU21623XXSP,2013-02-01 05:41:00,
2013-02-01 00:43:00,21.9,10.8,29.61,NW,315,8.3,10.1,62,0.00,,,0.00,WUHU21623XXSP,2013-02-01 05:43:00,
2013-02-01 00:46:00,21.9,10.8,29.61,NW,315,8.3,10.1,62,0.00,,,0.00,WUHU21623XXSP,2013-02-01 05:46:00,
2013-02-01 00:48:00,21.9,10.8,29.61,WSW,247,4.0,10.1,62,0.00,,,0.00,WUHU21623XXSP,2013-02-01 05:48:00,
2013-02-01 00:50:00,21.9,10.5,29.61,WNW,292,8.9,10.1,61,0.00,,,0.00,WUHU21623XXSP,2013-02-01 05:50:00,
2013-02-01 00:52:00,22.1,11.0,29.61,WSW,247,7.4,8.9,62,0.00,,,0.00,WUHU21623XXSP,2013-02-01 05:52:00,
2013-02-01 00:54:00,21.9,10.5,29.61,WNW,292,14.3,14.3,61,0.00,,,0.00,WUHU21623XXSP,2013-02-01 05:54:00,
2013-02-01 00:56:00,21.9,10.5,29.61,West,270,7.4,14.3,61,0.00,,,0.00,WUHU21623XXSP,2013-02-01 05:56:00,
2013-02-01 00:58:00,22.1,10.7,29.62,SW,225,8.1,14.3,61,0.00,,,0.00,WUHU21623XXSP,2013-02-01 05:58:00,
2013-02-01 01:01:00,22.1,10.7,29.62,WNW,292,10.5,14.3,61,0.00,,,0.00,WUHU21623XXSP,2013-02-01 06:01:00,
2013-02-01 01:03:00,22.1,10.7,29.61,WNW,292,14.1,14.3,61,0.00,,,0.00,WUHU21623XXSP,2013-02-01 06:03:00,
2013-02-01 01:05:00,22.1,10.7,29.61,WNW,292,6.5,14.1,61,0.00,,,0.00,WUHU21623XXSP,2013-02-01 06:05:00,
2013-02-01 01:07:00,22.1,10.7,29.61,WNW,292,9.4,14.1,61,0.00,,,0.00,WUHU21623XXSP,2013-02-01 06:07:00,
2013-02-01 01:09:00,22.1,10.7,29.62,NW,315,3.4,14.1,61,0.00,,,0.00,WUHU21623XXSP,2013-02-01 06:09:00,
2013-02-01 01:11:00,22.1,10.7,29.62,West,270,10.3,14.1,61,0.00,,,0.00,WUHU21623XXSP,2013-02-01 06:11:00,
2013-02-01 01:13:00,21.9,10.5,29.62,West,270,7.4,10.3,61,0.00,,,0.00,WUHU21623XXSP,2013-02-01 06:13:00,
2013-02-01 01:16:00,21.9,10.5,29.62,West,270,6.5,10.3,61,0.00,,,0.00,WUHU21623XXSP,2013-02-01 06:16:00,
2013-02-01 01:18:00,21.9,10.5,29.62,WSW,247,4.5,10.3,61,0.00,,,0.00,WUHU21623XXSP,2013-02-01 06:18:00,
2013-02-01 01:20:00,21.9,10.5,29.62,WNW,292,6.3,10.3,61,0.00,,,0.00,WUHU21623XXSP,2013-02-01 06:20:00,
2013-02-01 01:22:00,21.7,10.3,29.63,West,270,2.5,7.4,61,0.00,,,0.00,WUHU21623XXSP,2013-02-01 06:22:00,
2013-02-01 01:24:00,21.7,10.7,29.62,West,270,5.4,6.5,62,0.00,,,0.00,WUHU21623XXSP,2013-02-01 06:24:00,
2013-02-01 01:26:00,21.9,10.8,29.63,West,270,7.8,7.8,62,0.00,,,0.00,WUHU21623XXSP,2013-02-01 06:26:00,
2013-02-01 01:28:00,21.7,10.7,29.63,West,270,6.5,7.8,62,0.00,,,0.00,WUHU21623XXSP,2013-02-01 06:28:00,
2013-02-01 01:31:00,21.7,10.7,29.63,WSW,247,5.1,7.8,62,0.00,,,0.00,WUHU21623XXSP,2013-02-01 06:31:00,
2013-02-01 01:33:00,21.7,10.7,29.63,NW,315,9.2,9.2,62,0.00,,,0.00,WUHU21623XXSP,2013-02-01 06:33:00,
2013-02-01 01:35:00,21.7,10.7,29.62,NW,315,9.2,9.2,62,0.00,,,0.00,WUHU21623XXSP,2013-02-01 06:35:00,
2013-02-01 01:37:00,21.7,10.7,29.63,WNW,292,0.0,9.2,62,0.00,,,0.00,WUHU21623XXSP,2013-02-01 06:37:00,
2013-02-01 01:39:00,21.7,10.7,29.62,WNW,292,7.4,9.2,62,0.00,,,0.00,WUHU21623XXSP,2013-02-01 06:39:00,
2013-02-01 01:41:00,21.7,11.0,29.62,WSW,247,6.9,9.2,63,0.00,,,0.00,WUHU21623XXSP,2013-02-01 06:41:00,
2013-02-01 01:43:00,21.6,10.8,29.63,West,270,5.4,9.2,63,0.00,,,0.00,WUHU21623XXSP,2013-02-01 06:43:00,
2013-02-01 01:46:00,21.6,10.8,29.63,West,270,5.4,7.4,63,0.00,,,0.00,WUHU21623XXSP,2013-02-01 06:46:00,
2013-02-01 01:48:00,21.6,10.8,29.63,WSW,247,4.5,7.4,63,0.00,,,0.00,WUHU21623XXSP,2013-02-01 06:48:00,
2013-02-01 01:50:00,21.6,10.8,29.63,West,270,7.4,7.4,63,0.00,,,0.00,WUHU21623XXSP,2013-02-01 06:50:00,
2013-02-01 01:52:00,21.6,10.8,29.63,NW,315,6.0,7.4,63,0.00,,,0.00,WUHU21623XXSP,2013-02-01 06:52:00,
2013-02-01 01:54:00,21.4,10.7,29.63,NW,315,13.2,13.2,63,0.00,,,0.00,WUHU21623XXSP,2013-02-01 06:54:00,
2013-02-01 01:56:00,21.4,10.7,29.63,WSW,247,9.6,13.2,63,0.00,,,0.00,WUHU21623XXSP,2013-02-01 06:56:00,
2013-02-01 01:58:00,21.4,10.7,29.63,West,270,3.4,13.2,63,0.00,,,0.00,WUHU21623XXSP,2013-02-01 06:58:00,
2013-02-01 02:00:00,21.4,10.7,29.63,WSW,247,7.8,13.2,63,0.00,,,0.00,WUHU21623XXSP,2013-02-01 07:00:00,
2013-02-01 02:03:00,21.4,10.7,29.63,West,270,8.3,13.2,63,0.00,,,0.00,WUHU21623XXSP,2013-02-01 07:03:00,
2013-02-01 02:05:00,21.4,10.7,29.63,WNW,292,9.2,9.6,63,0.00,,,0.00,WUHU21623XXSP,2013-02-01 07:05:00,
2013-02-01 02:07:00,21.4,10.7,29.63,SW,225,8.9,9.2,63,0.00,,,0.00,WUHU21623XXSP,2013-02-01 07:07:00,
2013-02-01 02:09:00,21.4,10.7,29.63,WSW,247,7.8,9.2,63,0.00,,,0.00,WUHU21623XXSP,2013-02-01 07:09:00,
2013-02-01 02:11:00,21.4,10.7,29.63,NW,315,12.5,12.5,63,0.00,,,0.00,WUHU21623XXSP,2013-02-01 07:11:00,
2013-02-01 02:13:00,21.4,10.7,29.63,NW,315,12.5,12.5,63,0.00,,,0.00,WUHU21623XXSP,2013-02-01 07:13:00,
2013-02-01 02:15:00,21.4,10.7,29.63,West,270,13.4,13.4,63,0.00,,,0.00,WUHU21623XXSP,2013-02-01 07:15:00,
2013-02-01 02:18:00,21.4,10.7,29.63,WNW,292,7.4,13.4,63,0.00,,,0.00,WUHU21623XXSP,2013-02-01 07:18:00,
2013-02-01 02:20:00,21.4,10.7,29.64,West,270,1.3,13.4,63,0.00,,,0.00,WUHU21623XXSP,2013-02-01 07:20:00,
2013-02-01 02:22:00,21.4,10.7,29.63,West,270,5.1,13.4,63,0.00,,,0.00,WUHU21623XXSP,2013-02-01 07:22:00,
2013-02-01 02:24:00,21.2,10.5,29.64,NW,315,4.3,13.4,63,0.00,,,0.00,WUHU21623XXSP,2013-02-01 07:24:00,
2013-02-01 02:26:00,21.0,10.3,29.63,WSW,247,6.7,7.4,63,0.00,,,0.00,WUHU21623XXSP,2013-02-01 07:26:00,
2013-02-01 02:28:00,21.0,10.3,29.64,West,270,4.7,6.7,63,0.00,,,0.00,WUHU21623XXSP,2013-02-01 07:28:00,
2013-02-01 02:31:00,21.0,10.3,29.63,WNW,292,6.3,6.7,63,0.00,,,0.00,WUHU21623XXSP,2013-02-01 07:31:00,
2013-02-01 02:33:00,21.0,10.3,29.64,WNW,292,10.5,10.5,63,0.00,,,0.00,WUHU21623XXSP,2013-02-01 07:33:00,
2013-02-01 02:35:00,21.0,10.3,29.64,WNW,292,3.8,10.5,63,0.00,,,0.00,WUHU21623XXSP,2013-02-01 07:35:00,
2013-02-01 02:37:00,21.0,10.3,29.64,West,270,8.3,10.5,63,0.00,,,0.00,WUHU21623XXSP,2013-02-01 07:37:00,
2013-02-01 02:39:00,21.0,10.3,29.64,West,270,6.3,10.5,63,0.00,,,0.00,WUHU21623XXSP,2013-02-01 07:39:00,
2013-02-01 02:41:00,21.0,10.3,29.63,WNW,292,7.6,10.5,63,0.00,,,0.00,WUHU21623XXSP,2013-02-01 07:41:00,
2013-02-01 02:43:00,21.0,10.3,29.63,WNW,292,7.6,8.3,63,0.00,,,0.00,WUHU21623XXSP,2013-02-01 07:43:00,
2013-02-01 02:45:00,21.0,10.3,29.63,WNW,292,7.6,8.3,63,0.00,,,0.00,WUHU21623XXSP,2013-02-01 07:45:00,
2013-02-01 02:48:00,21.0,10.3,29.63,West,270,0.0,7.6,63,0.00,,,0.00,WUHU21623XXSP,2013-02-01 07:48:00,
2013-02-01 02:50:00,21.0,10.3,29.63,West,270,8.3,8.3,63,0.00,,,0.00,WUHU21623XXSP,2013-02-01 07:50:00,
2013-02-01 02:52:00,20.8,10.5,29.63,SW,225,8.5,8.5,64,0.00,,,0.00,WUHU21623XXSP,2013-02-01 07:52:00,
2013-02-01 02:54:00,20.8,10.2,29.63,West,270,4.5,8.5,63,0.00,,,0.00,WUHU21623XXSP,2013-02-01 07:54:00,
2013-02-01 02:56:00,20.8,10.2,29.64,WNW,292,8.9,8.9,63,0.00,,,0.00,WUHU21623XXSP,2013-02-01 07:56:00,
2013-02-01 02:58:00,20.8,10.2,29.64,West,270,7.4,8.9,63,0.00,,,0.00,WUHU21623XXSP,2013-02-01 07:58:00,
2013-02-01 03:00:00,20.8,10.5,29.64,West,270,9.2,9.2,64,0.00,,,0.00,WUHU21623XXSP,2013-02-01 08:00:00,
2013-02-01 03:02:00,20.8,10.2,29.64,WNW,292,14.8,14.8,63,0.00,,,0.00,WUHU21623XXSP,2013-02-01 08:02:00,
2013-02-01 03:05:00,20.8,10.5,29.64,WNW,292,5.1,14.8,64,0.00,,,0.00,WUHU21623XXSP,2013-02-01 08:05:00,
2013-02-01 03:07:00,20.8,10.5,29.63,West,270,6.9,14.8,64,0.00,,,0.00,WUHU21623XXSP,2013-02-01 08:07:00,
2013-02-01 03:09:00,20.8,10.5,29.64,WSW,247,6.9,14.8,64,0.00,,,0.00,WUHU21623XXSP,2013-02-01 08:09:00,
2013-02-01 03:11:00,20.8,10.5,29.63,West,270,3.8,14.8,64,0.00,,,0.00,WUHU21623XXSP,2013-02-01 08:11:00,
2013-02-01 03:13:00,20.8,10.5,29.64,WSW,247,3.4,6.9,64,0.00,,,0.00,WUHU21623XXSP,2013-02-01 08:13:00,
2013-02-01 03:15:00,20.8,10.5,29.64,WNW,292,7.4,7.4,64,0.00,,,0.00,WUHU21623XXSP,2013-02-01 08:15:00,
2013-02-01 03:18:00,20.8,10.5,29.64,WSW,247,7.2,7.4,64,0.00,,,0.00,WUHU21623XXSP,2013-02-01 08:18:00,
2013-02-01 03:20:00,20.8,10.5,29.64,West,270,6.7,7.4,64,0.00,,,0.00,WUHU21623XXSP,2013-02-01 08:20:00,
2013-02-01 03:22:00,20.8,10.5,29.64,West,270,7.4,7.4,64,0.00,,,0.00,WUHU21623XXSP,2013-02-01 08:22:00,
2013-02-01 03:24:00,20.8,10.2,29.64,West,270,4.0,7.4,63,0.00,,,0.00,WUHU21623XXSP,2013-02-01 08:24:00,
2013-02-01 03:26:00,21.0,10.7,29.64,WSW,247,12.8,12.8,64,0.00,,,0.00,WUHU21623XXSP,2013-02-01 08:26:00,
2013-02-01 03:28:00,21.0,10.7,29.64,SW,225,6.9,12.8,64,0.00,,,0.00,WUHU21623XXSP,2013-02-01 08:28:00,
2013-02-01 03:30:00,21.0,10.7,29.64,WSW,247,6.3,12.8,64,0.00,,,0.00,WUHU21623XXSP,2013-02-01 08:30:00,
2013-02-01 03:33:00,21.0,10.7,29.64,SW,225,6.5,12.8,64,0.00,,,0.00,WUHU21623XXSP,2013-02-01 08:33:00,
2013-02-01 03:35:00,21.0,10.7,29.64,WNW,292,6.5,12.8,64,0.00,,,0.00,WUHU21623XXSP,2013-02-01 08:35:00,
2013-02-01 03:37:00,21.0,10.7,29.64,WSW,247,6.0,6.9,64,0.00,,,0.00,WUHU21623XXSP,2013-02-01 08:37:00,
2013-02-01 03:39:00,21.0,10.7,29.64,WSW,247,6.5,6.5,64,0.00,,,0.00,WUHU21623XXSP,2013-02-01 08:39:00,
2013-02-01 03:41:00,21.0,10.3,29.64,WSW,247,15.2,15.2,63,0.00,,,0.00,WUHU21623XXSP,2013-02-01 08:41:00,
2013-02-01 03:43:00,21.0,10.3,29.64,WNW,292,6.0,15.2,63,0.00,,,0.00,WUHU21623XXSP,2013-02-01 08:43:00,
2013-02-01 03:45:00,21.0,10.3,29.64,WNW,292,6.0,15.2,63,0.00,,,0.00,WUHU21623XXSP,2013-02-01 08:45:00,
2013-02-01 03:48:00,21.0,10.3,29.64,SW,225,9.4,15.2,63,0.00,,,0.00,WUHU21623XXSP,2013-02-01 08:48:00,
2013-02-01 03:50:00,21.0,10.3,29.64,WSW,247,7.8,15.2,63,0.00,,,0.00,WUHU21623XXSP,2013-02-01 08:50:00,
2013-02-01 03:52:00,21.0,10.7,29.65,WNW,292,6.9,9.4,64,0.00,,,0.00,WUHU21623XXSP,2013-02-01 08:52:00,
2013-02-01 03:54:00,21.0,11.0,29.64,West,270,10.3,10.3,65,0.00,,,0.00,WUHU21623XXSP,2013-02-01 08:54:00,
2013-02-01 03:56:00,21.0,11.4,29.65,WNW,292,12.1,12.1,66,0.00,,,0.00,WUHU21623XXSP,2013-02-01 08:56:00,
2013-02-01 03:58:00,20.8,11.5,29.65,West,270,6.7,12.1,67,0.00,,,0.00,WUHU21623XXSP,2013-02-01 08:58:00,
2013-02-01 04:00:00,20.8,11.9,29.64,NNW,337,5.8,12.1,68,0.00,,,0.00,WUHU21623XXSP,2013-02-01 09:00:00,
2013-02-01 04:02:00,20.8,11.5,29.64,WNW,292,6.0,12.1,67,0.00,,,0.00,WUHU21623XXSP,2013-02-01 09:02:00,
2013-02-01 04:05:00,20.8,11.2,29.64,NNW,337,7.4,12.1,66,0.00,,,0.00,WUHU21623XXSP,2013-02-01 09:05:00,
2013-02-01 04:07:00,20.8,10.8,29.64,West,270,6.7,7.4,65,0.00,,,0.00,WUHU21623XXSP,2013-02-01 09:07:00,
2013-02-01 04:09:00,20.8,11.2,29.64,West,270,6.7,7.4,66,0.00,,,0.00,WUHU21623XXSP,2013-02-01 09:09:00,
2013-02-01 04:11:00,20.8,11.2,29.65,WNW,292,6.9,7.4,66,0.00,,,0.00,WUHU21623XXSP,2013-02-01 09:11:00,
2013-02-01 04:13:00,20.8,11.2,29.65,WNW,292,6.9,7.4,66,0.00,,,0.00,WUHU21623XXSP,2013-02-01 09:13:00,
2013-02-01 04:15:00,20.3,12.9,29.65,NW,315,15.4,15.4,73,0.00,,,0.00,WUHU21623XXSP,2013-02-01 09:15:00,
2013-02-01 04:17:00,20.3,12.9,29.65,WNW,292,7.6,15.4,73,0.00,,,0.00,WUHU21623XXSP,2013-02-01 09:17:00,
2013-02-01 04:19:00,20.3,12.9,29.65,WNW,292,7.6,15.4,73,0.00,,,0.00,WUHU21623XXSP,2013-02-01 09:19:00,
2013-02-01 04:22:00,20.3,12.9,29.65,WNW,292,7.6,15.4,73,0.00,,,0.00,WUHU21623XXSP,2013-02-01 09:22:00,
2013-02-01 04:24:00,20.1,13.4,29.65,NW,315,6.7,15.4,75,0.00,,,0.00,WUHU21623XXSP,2013-02-01 09:24:00,
2013-02-01 04:26:00,19.9,13.5,29.65,West,270,6.5,7.6,76,0.00,,,0.00,WUHU21623XXSP,2013-02-01 09:26:00,
2013-02-01 04:28:00,19.9,13.8,29.66,WNW,292,6.9,7.6,77,0.00,,,0.00,WUHU21623XXSP,2013-02-01 09:28:00,
2013-02-01 04:30:00,19.9,14.1,29.65,NNW,337,12.5,12.5,78,0.00,,,0.00,WUHU21623XXSP,2013-02-01 09:30:00,
2013-02-01 04:32:00,19.6,14.6,29.66,WNW,292,11.0,12.5,81,0.00,,,0.00,WUHU21623XXSP,2013-02-01 09:32:00,
2013-02-01 04:35:00,19.6,14.6,29.66,WNW,292,6.3,12.5,81,0.00,,,0.00,WUHU21623XXSP,2013-02-01 09:35:00,
2013-02-01 04:37:00,19.4,14.7,29.66,West,270,2.9,12.5,82,0.00,,,0.00,WUHU21623XXSP,2013-02-01 09:37:00,
2013-02-01 04:39:00,19.2,14.5,29.66,WNW,292,3.8,12.5,82,0.00,,,0.00,WUHU21623XXSP,2013-02-01 09:39:00,
2013-02-01 04:41:00,19.2,14.8,29.66,West,270,4.5,11.0,83,0.00,,,0.00,WUHU21623XXSP,2013-02-01 09:41:00,
2013-02-01 04:43:00,19.2,14.8,29.66,WNW,292,5.1,6.3,83,0.00,,,0.00,WUHU21623XXSP,2013-02-01 09:43:00,
2013-02-01 04:45:00,19.2,14.8,29.66,WNW,292,5.1,5.1,83,0.00,,,0.00,WUHU21623XXSP,2013-02-01 09:45:00,
2013-02-01 04:48:00,19.0,14.6,29.66,WNW,292,2.5,5.1,83,0.00,,,0.00,WUHU21623XXSP,2013-02-01 09:48:00,
2013-02-01 04:49:00,19.0,14.6,29.66,West,270,4.5,5.1,83,0.00,,,0.00,WUHU21623XXSP,2013-02-01 09:49:00,
2013-02-01 04:52:00,19.0,14.6,29.66,West,270,6.0,6.0,83,0.00,,,0.00,WUHU21623XXSP,2013-02-01 09:52:00,
2013-02-01 04:54:00,19.0,14.6,29.66,WNW,292,6.3,6.3,83,0.00,,,0.00,WUHU21623XXSP,2013-02-01 09:54:00,
2013-02-01 04:56:00,19.0,14.9,29.66,WNW,292,7.4,7.4,84,0.00,,,0.00,WUHU21623XXSP,2013-02-01 09:56:00,
2013-02-01 04:58:00,18.9,14.7,29.66,West,270,1.3,7.4,84,0.00,,,0.00,WUHU21623XXSP,2013-02-01 09:58:00,
2013-02-01 05:00:00,18.9,14.7,29.66,NW,315,8.1,8.1,84,0.00,,,0.00,WUHU21623XXSP,2013-02-01 10:00:00,
2013-02-01 05:02:00,18.9,14.7,29.66,WNW,292,5.4,8.1,84,0.00,,,0.00,WUHU21623XXSP,2013-02-01 10:02:00,
2013-02-01 05:05:00,18.9,14.7,29.66,WNW,292,4.5,8.1,84,0.00,,,0.00,WUHU21623XXSP,2013-02-01 10:05:00,
2013-02-01 05:07:00,18.9,14.7,29.67,West,270,6.7,8.1,84,0.00,,,0.00,WUHU21623XXSP,2013-02-01 10:07:00,
2013-02-01 05:09:00,18.9,14.7,29.67,WNW,292,7.8,8.1,84,0.00,,,0.00,WUHU21623XXSP,2013-02-01 10:09:00,
2013-02-01 05:11:00,18.9,14.7,29.67,West,270,4.0,7.8,84,0.00,,,0.00,WUHU21623XXSP,2013-02-01 10:11:00,
2013-02-01 05:13:00,18.9,14.7,29.67,WNW,292,8.9,8.9,84,0.00,,,0.00,WUHU21623XXSP,2013-02-01 10:13:00,
2013-02-01 05:15:00,18.9,14.7,29.67,WNW,292,6.3,8.9,84,0.00,,,0.00,WUHU21623XXSP,2013-02-01 10:15:00,
2013-02-01 05:17:00,18.9,14.7,29.67,NW,315,6.9,8.9,84,0.00,,,0.00,WUHU21623XXSP,2013-02-01 10:17:00,
2013-02-01 05:19:00,18.9,14.7,29.67,WNW,292,7.2,8.9,84,0.00,,,0.00,WUHU21623XXSP,2013-02-01 10:19:00,
2013-02-01 05:22:00,18.9,14.7,29.67,WNW,292,6.7,8.9,84,0.00,,,0.00,WUHU21623XXSP,2013-02-01 10:22:00,
2013-02-01 05:24:00,18.9,14.7,29.67,West,270,6.7,7.2,84,0.00,,,0.00,WUHU21623XXSP,2013-02-01 10:24:00,
2013-02-01 05:26:00,18.9,14.7,29.67,WNW,292,5.4,7.2,84,0.00,,,0.00,WUHU21623XXSP,2013-02-01 10:26:00,
2013-02-01 05:28:00,18.9,14.7,29.68,WNW,292,7.8,7.8,84,0.00,,,0.00,WUHU21623XXSP,2013-02-01 10:28:00,
2013-02-01 05:30:00,18.9,14.7,29.67,WNW,292,2.7,7.8,84,0.00,,,0.00,WUHU21623XXSP,2013-02-01 10:30:00,
2013-02-01 05:32:00,18.9,14.7,29.67,WNW,292,5.6,7.8,84,0.00,,,0.00,WUHU21623XXSP,2013-02-01 10:32:00,
2013-02-01 05:35:00,18.7,14.5,29.67,WNW,292,3.4,7.8,84,0.00,,,0.00,WUHU21623XXSP,2013-02-01 10:35:00,
2013-02-01 05:37:00,18.7,14.5,29.68,West,270,8.3,8.3,84,0.00,,,0.00,WUHU21623XXSP,2013-02-01 10:37:00,
2013-02-01 05:39:00,18.7,14.8,29.68,NW,315,6.9,8.3,85,0.00,,,0.00,WUHU21623XXSP,2013-02-01 10:39:00,
2013-02-01 05:41:00,18.9,15.0,29.68,WNW,292,0.0,8.3,85,0.00,,,0.00,WUHU21623XXSP,2013-02-01 10:41:00,
2013-02-01 05:43:00,18.9,15.0,29.68,West,270,2.9,8.3,85,0.00,,,0.00,WUHU21623XXSP,2013-02-01 10:43:00,
2013-02-01 05:45:00,18.9,15.0,29.68,West,270,2.9,8.3,85,0.00,,,0.00,WUHU21623XXSP,2013-02-01 10:45:00,
2013-02-01 05:48:00,18.7,14.8,29.68,WSW,247,6.3,6.9,85,0.00,,,0.00,WUHU21623XXSP,2013-02-01 10:48:00,
2013-02-01 05:49:00,18.7,14.8,29.68,WNW,292,7.4,7.4,85,0.00,,,0.00,WUHU21623XXSP,2013-02-01 10:49:00,
2013-02-01 05:52:00,18.7,14.8,29.69,WSW,247,4.9,7.4,85,0.00,,,0.00,WUHU21623XXSP,2013-02-01 10:52:00,
2013-02-01 05:54:00,18.7,14.8,29.69,West,270,5.6,7.4,85,0.00,,,0.00,WUHU21623XXSP,2013-02-01 10:54:00,
2013-02-01 05:56:00,18.7,14.8,29.69,WNW,292,0.0,7.4,85,0.00,,,0.00,WUHU21623XXSP,2013-02-01 10:56:00,
2013-02-01 05:58:00,18.7,14.8,29.69,WSW,247,4.9,7.4,85,0.00,,,0.00,WUHU21623XXSP,2013-02-01 10:58:00,
2013-02-01 06:00:00,18.7,14.8,29.69,NW,315,6.5,6.5,85,0.00,,,0.00,WUHU21623XXSP,2013-02-01 11:00:00,
2013-02-01 06:02:00,18.7,14.8,29.69,West,270,7.2,7.2,85,0.00,,,0.00,WUHU21623XXSP,2013-02-01 11:02:00,
2013-02-01 06:04:00,18.7,14.8,29.69,WNW,292,8.1,8.1,85,0.00,,,0.00,WUHU21623XXSP,2013-02-01 11:04:00,
2013-02-01 06:07:00,18.7,14.8,29.69,West,270,7.6,8.1,85,0.00,,,0.00,WUHU21623XXSP,2013-02-01 11:07:00,
2013-02-01 06:09:00,18.5,14.6,29.70,West,270,7.8,8.1,85,0.00,,,0.00,WUHU21623XXSP,2013-02-01 11:09:00,
2013-02-01 06:11:00,18.5,14.6,29.70,West,270,2.7,8.1,85,0.00,,,0.00,WUHU21623XXSP,2013-02-01 11:11:00,
2013-02-01 06:13:00,18.5,14.6,29.70,West,270,8.1,8.1,85,0.00,,,0.00,WUHU21623XXSP,2013-02-01 11:13:00,
2013-02-01 06:15:00,18.3,14.4,29.70,WNW,292,5.4,8.1,85,0.00,,,0.00,WUHU21623XXSP,2013-02-01 11:15:00,
2013-02-01 06:17:00,18.3,14.4,29.70,West,270,5.4,8.1,85,0.00,,,0.00,WUHU21623XXSP,2013-02-01 11:17:00,
2013-02-01 06:19:00,18.3,14.4,29.70,West,270,2.7,8.1,85,0.00,,,0.00,WUHU21623XXSP,2013-02-01 11:19:00,
2013-02-01 06:22:00,18.3,14.4,29.70,WSW,247,7.2,8.1,85,0.00,,,0.00,WUHU21623XXSP,2013-02-01 11:22:00,
2013-02-01 06:24:00,18.3,14.4,29.70,West,270,6.3,7.2,85,0.00,,,0.00,WUHU21623XXSP,2013-02-01 11:24:00,
2013-02-01 06:26:00,18.3,14.4,29.71,WSW,247,7.4,7.4,85,0.00,,,0.00,WUHU21623XXSP,2013-02-01 11:26:00,
2013-02-01 06:28:00,18.3,14.4,29.71,NW,315,9.6,9.6,85,0.00,,,0.00,WUHU21623XXSP,2013-02-01 11:28:00,
2013-02-01 06:30:00,18.3,14.4,29.71,WNW,292,3.4,9.6,85,0.00,,,0.00,WUHU21623XXSP,2013-02-01 11:30:00,
2013-02-01 06:32:00,18.3,14.4,29.71,West,270,4.5,9.6,85,0.00,,,0.00,WUHU21623XXSP,2013-02-01 11:32:00,
2013-02-01 06:34:00,18.3,14.4,29.71,WSW,247,4.9,9.6,85,0.00,,,0.00,WUHU21623XXSP,2013-02-01 11:34:00,
2013-02-01 06:36:00,18.3,14.4,29.72,West,270,2.5,9.6,85,0.00,,,0.00,WUHU21623XXSP,2013-02-01 11:36:00,
2013-02-01 06:39:00,18.3,14.4,29.71,WNW,292,4.3,4.9,85,0.00,,,0.00,WUHU21623XXSP,2013-02-01 11:39:00,
2013-02-01 06:41:00,18.3,14.4,29.72,West,270,2.7,4.9,85,0.00,,,0.00,WUHU21623XXSP,2013-02-01 11:41:00,
2013-02-01 06:43:00,18.3,14.4,29.71,West,270,4.7,4.9,85,0.00,,,0.00,WUHU21623XXSP,2013-02-01 11:43:00,
2013-02-01 06:45:00,18.1,14.3,29.72,WNW,292,4.5,4.7,85,0.00,,,0.00,WUHU21623XXSP,2013-02-01 11:45:00,
2013-02-01 06:47:00,18.1,14.3,29.72,NW,315,6.9,6.9,85,0.00,,,0.00,WUHU21623XXSP,2013-02-01 11:47:00,
2013-02-01 06:49:00,18.0,14.1,29.72,West,270,5.4,6.9,85,0.00,,,0.00,WUHU21623XXSP,2013-02-01 11:49:00,
2013-02-01 06:52:00,18.1,14.3,29.72,WNW,292,2.5,6.9,85,0.00,,,0.00,WUHU21623XXSP,2013-02-01 11:52:00,
2013-02-01 06:54:00,18.1,14.3,29.72,West,270,6.7,6.9,85,0.00,,,0.00,WUHU21623XXSP,2013-02-01 11:54:00,
2013-02-01 06:56:00,18.1,14.3,29.72,West,270,4.0,6.9,85,0.00,,,0.00,WUHU21623XXSP,2013-02-01 11:56:00,
2013-02-01 06:58:00,18.1,14.3,29.73,NW,315,4.0,6.7,85,0.00,,,0.00,WUHU21623XXSP,2013-02-01 11:58:00,
2013-02-01 07:00:00,18.1,14.3,29.73,NNW,337,6.3,6.7,85,0.00,,,0.00,WUHU21623XXSP,2013-02-01 12:00:00,
2013-02-01 07:02:00,18.1,14.3,29.73,NNW,337,2.7,6.7,85,0.00,,,0.00,WUHU21623XXSP,2013-02-01 12:02:00,
2013-02-01 07:04:00,18.1,14.3,29.73,NNW,337,7.8,7.8,85,0.00,,,0.00,WUHU21623XXSP,2013-02-01 12:04:00,
2013-02-01 07:07:00,18.1,14.3,29.73,NNW,337,1.8,7.8,85,0.00,,,0.00,WUHU21623XXSP,2013-02-01 12:07:00,
2013-02-01 07:09:00,18.1,14.3,29.74,NNW,337,7.2,7.8,85,0.00,,,0.00,WUHU21623XXSP,2013-02-01 12:09:00,
2013-02-01 07:11:00,18.0,14.1,29.74,NNW,337,2.7,7.8,85,0.00,,,0.00,WUHU21623XXSP,2013-02-01 12:11:00,
2013-02-01 07:13:00,17.8,13.9,29.73,NW,315,6.7,7.8,85,0.00,,,0.00,WUHU21623XXSP,2013-02-01 12:13:00,
2013-02-01 07:15:00,17.8,13.9,29.74,NNW,337,8.1,8.1,85,0.00,,,0.00,WUHU21623XXSP,2013-02-01 12:15:00,
2013-02-01 07:17:00,17.8,13.9,29.74,NW,315,7.4,8.1,85,0.00,,,0.00,WUHU21623XXSP,2013-02-01 12:17:00,
2013-02-01 07:19:00,17.8,13.9,29.74,NW,315,7.4,8.1,85,0.00,,,0.00,WUHU21623XXSP,2013-02-01 12:19:00,
2013-02-01 07:22:00,17.8,13.9,29.75,NW,315,0.7,8.1,85,0.00,,,0.00,WUHU21623XXSP,2013-02-01 12:22:00,
2013-02-01 07:24:00,17.8,13.9,29.75,WNW,292,7.4,8.1,85,0.00,,,0.00,WUHU21623XXSP,2013-02-01 12:24:00,
2013-02-01 07:26:00,17.8,13.9,29.75,NW,315,7.4,7.4,85,0.00,,,0.00,WUHU21623XXSP,2013-02-01 12:26:00,
2013-02-01 07:28:00,17.8,13.6,29.75,NW,315,7.8,7.8,84,0.00,,,0.00,WUHU21623XXSP,2013-02-01 12:28:00,
2013-02-01 07:30:00,17.8,13.6,29.75,NNW,337,6.3,7.8,84,0.00,,,0.00,WUHU21623XXSP,2013-02-01 12:30:00,
2013-02-01 07:32:00,17.8,13.6,29.75,NNW,337,6.7,7.8,84,0.00,,,0.00,WUHU21623XXSP,2013-02-01 12:32:00,
2013-02-01 07:34:00,17.8,13.6,29.75,NW,315,4.9,7.8,84,0.00,,,0.00,WUHU21623XXSP,2013-02-01 12:34:00,
2013-02-01 07:36:00,17.4,13.3,29.75,WNW,292,4.7,7.8,84,0.00,,,0.00,WUHU21623XXSP,2013-02-01 12:36:00,
2013-02-01 07:39:00,17.8,13.6,29.75,WNW,292,5.1,6.7,84,0.00,,,0.00,WUHU21623XXSP,2013-02-01 12:39:00,
2013-02-01 07:41:00,17.8,13.6,29.75,West,270,10.1,10.1,84,0.00,,,0.00,WUHU21623XXSP,2013-02-01 12:41:00,
2013-02-01 07:43:00,17.8,13.6,29.76,WNW,292,6.5,10.1,84,0.00,,,0.00,WUHU21623XXSP,2013-02-01 12:43:00,
2013-02-01 07:45:00,17.8,13.6,29.76,WNW,292,6.9,10.1,84,0.00,,,0.00,WUHU21623XXSP,2013-02-01 12:45:00,
2013-02-01 07:47:00,17.8,13.6,29.76,NW,315,11.0,11.0,84,0.00,,,0.00,WUHU21623XXSP,2013-02-01 12:47:00,
2013-02-01 07:49:00,17.8,13.4,29.76,WNW,292,4.7,11.0,83,0.00,,,0.00,WUHU21623XXSP,2013-02-01 12:49:00,
2013-02-01 07:51:00,17.4,13.0,29.76,NW,315,8.5,11.0,83,0.00,,,0.00,WUHU21623XXSP,2013-02-01 12:51:00,
2013-02-01 07:54:00,17.4,13.0,29.76,NNW,337,5.6,11.0,83,0.00,,,0.00,WUHU21623XXSP,2013-02-01 12:54:00,
2013-02-01 07:56:00,17.4,13.0,29.77,NNW,337,7.2,11.0,83,0.00,,,0.00,WUHU21623XXSP,2013-02-01 12:56:00,
2013-02-01 07:58:00,17.4,13.0,29.77,NW,315,5.4,8.5,83,0.00,,,0.00,WUHU21623XXSP,2013-02-01 12:58:00,
2013-02-01 08:00:00,17.6,13.2,29.77,WNW,292,7.8,8.5,83,0.00,,,0.00,WUHU21623XXSP,2013-02-01 13:00:00,
2013-02-01 08:02:00,17.6,13.2,29.77,NW,315,7.2,7.8,83,0.00,,,0.00,WUHU21623XXSP,2013-02-01 13:02:00,
2013-02-01 08:04:00,17.8,13.4,29.77,NW,315,4.7,7.8,83,0.00,,,0.00,WUHU21623XXSP,2013-02-01 13:04:00,
2013-02-01 08:07:00,17.8,13.4,29.77,WNW,292,4.9,7.8,83,0.00,,,0.00,WUHU21623XXSP,2013-02-01 13:07:00,
2013-02-01 08:09:00,17.8,13.4,29.78,NW,315,7.2,7.8,83,0.00,,,0.00,WUHU21623XXSP,2013-02-01 13:09:00,
2013-02-01 08:11:00,17.8,13.4,29.78,NW,315,7.2,7.2,83,0.00,,,0.00,WUHU21623XXSP,2013-02-01 13:11:00,
2013-02-01 08:13:00,17.8,13.4,29.78,NNW,337,7.2,7.2,83,0.00,,,0.00,WUHU21623XXSP,2013-02-01 13:13:00,
2013-02-01 08:15:00,17.8,13.4,29.78,NW,315,5.8,7.2,83,0.00,,,0.00,WUHU21623XXSP,2013-02-01 13:15:00,
2013-02-01 08:17:00,17.8,13.4,29.79,NNW,337,4.7,7.2,83,0.00,,,0.00,WUHU21623XXSP,2013-02-01 13:17:00,
2013-02-01 08:19:00,17.6,12.9,29.78,NW,315,8.1,8.1,82,0.00,,,0.00,WUHU21623XXSP,2013-02-01 13:19:00,
2013-02-01 08:21:00,17.6,12.9,29.78,West,270,7.4,8.1,82,0.00,,,0.00,WUHU21623XXSP,2013-02-01 13:21:00,
2013-02-01 08:23:00,17.6,12.9,29.78,West,270,7.4,8.1,82,0.00,,,0.00,WUHU21623XXSP,2013-02-01 13:23:00,
2013-02-01 08:26:00,17.6,12.9,29.79,West,270,7.4,8.1,82,0.00,,,0.00,WUHU21623XXSP,2013-02-01 13:26:00,
2013-02-01 08:28:00,17.4,12.7,29.79,WNW,292,11.6,11.6,82,0.00,,,0.00,WUHU21623XXSP,2013-02-01 13:28:00,
2013-02-01 08:30:00,17.4,12.7,29.79,NW,315,5.8,11.6,82,0.00,,,0.00,WUHU21623XXSP,2013-02-01 13:30:00,
2013-02-01 08:32:00,17.4,12.7,29.79,West,270,6.5,11.6,82,0.00,,,0.00,WUHU21623XXSP,2013-02-01 13:32:00,
2013-02-01 08:34:00,17.4,12.7,29.79,NW,315,6.7,11.6,82,0.00,,,0.00,WUHU21623XXSP,2013-02-01 13:34:00,
2013-02-01 08:36:00,17.8,13.1,29.79,NW,315,6.7,11.6,82,0.00,,,0.00,WUHU21623XXSP,2013-02-01 13:36:00,
2013-02-01 08:39:00,18.0,13.3,29.79,West,270,6.3,6.7,82,0.00,,,0.00,WUHU21623XXSP,2013-02-01 13:39:00,
2013-02-01 08:41:00,18.1,13.5,29.79,WNW,292,5.4,6.7,82,0.00,,,0.00,WUHU21623XXSP,2013-02-01 13:41:00,
2013-02-01 08:43:00,18.1,13.5,29.79,NW,315,5.1,6.7,82,0.00,,,0.00,WUHU21623XXSP,2013-02-01 13:43:00,
2013-02-01 08:45:00,18.1,13.2,29.79,NNW,337,6.9,6.9,81,0.00,,,0.00,WUHU21623XXSP,2013-02-01 13:45:00,
2013-02-01 08:47:00,18.3,13.4,29.79,NW,315,6.7,6.9,81,0.00,,,0.00,WUHU21623XXSP,2013-02-01 13:47:00,
2013-02-01 08:49:00,18.3,13.4,29.79,WNW,292,3.4,6.9,81,0.00,,,0.00,WUHU21623XXSP,2013-02-01 13:49:00,
2013-02-01 08:51:00,18.3,13.4,29.79,WNW,292,10.3,10.3,81,0.00,,,0.00,WUHU21623XXSP,2013-02-01 13:51:00,
2013-02-01 08:54:00,18.5,13.3,29.79,NW,315,8.9,10.3,80,0.00,,,0.00,WUHU21623XXSP,2013-02-01 13:54:00,
2013-02-01 08:56:00,18.5,13.3,29.79,North,0,7.2,10.3,80,0.00,,,0.00,WUHU21623XXSP,2013-02-01 13:56:00,
2013-02-01 08:58:00,18.5,13.6,29.80,NW,315,6.7,10.3,81,0.00,,,0.00,WUHU21623XXSP,2013-02-01 13:58:00,
2013-02-01 09:00:00,18.5,13.6,29.80,WNW,292,2.9,10.3,81,0.00,,,0.00,WUHU21623XXSP,2013-02-01 14:00:00,
2013-02-01 09:02:00,18.5,13.6,29.80,NNW,337,7.8,8.9,81,0.00,,,0.00,WUHU21623XXSP,2013-02-01 14:02:00,
2013-02-01 09:04:00,18.5,13.3,29.80,WNW,292,6.9,7.8,80,0.00,,,0.00,WUHU21623XXSP,2013-02-01 14:04:00,
2013-02-01 09:06:00,18.3,13.1,29.80,WNW,292,4.5,7.8,80,0.00,,,0.00,WUHU21623XXSP,2013-02-01 14:06:00,
2013-02-01 09:08:00,18.3,13.1,29.80,WNW,292,4.5,7.8,80,0.00,,,0.00,WUHU21623XXSP,2013-02-01 14:08:00,
2013-02-01 09:11:00,18.3,13.1,29.80,West,270,7.8,7.8,80,0.00,,,0.00,WUHU21623XXSP,2013-02-01 14:11:00,
2013-02-01 09:13:00,18.5,13.3,29.80,NW,315,6.5,7.8,80,0.00,,,0.00,WUHU21623XXSP,2013-02-01 14:13:00,
2013-02-01 09:15:00,18.7,13.5,29.81,West,270,7.4,7.8,80,0.00,,,0.00,WUHU21623XXSP,2013-02-01 14:15:00,
2013-02-01 09:17:00,18.9,13.9,29.81,West,270,7.4,7.8,81,0.00,,,0.00,WUHU21623XXSP,2013-02-01 14:17:00,
2013-02-01 09:19:00,18.7,13.5,29.81,NW,315,7.4,7.8,80,0.00,,,0.00,WUHU21623XXSP,2013-02-01 14:19:00,
2013-02-01 09:21:00,18.9,13.6,29.81,WNW,292,7.4,7.4,80,0.00,,,0.00,WUHU21623XXSP,2013-02-01 14:21:00,
2013-02-01 09:23:00,18.7,13.2,29.81,West,270,5.8,7.4,79,0.00,,,0.00,WUHU21623XXSP,2013-02-01 14:23:00,
2013-02-01 09:26:00,19.0,13.8,29.82,WNW,292,9.4,9.4,80,0.00,,,0.00,WUHU21623XXSP,2013-02-01 14:26:00,
2013-02-01 09:28:00,19.0,13.8,29.82,NW,315,2.7,9.4,80,0.00,,,0.00,WUHU21623XXSP,2013-02-01 14:28:00,
2013-02-01 09:30:00,19.0,13.5,29.82,NNW,337,7.4,9.4,79,0.00,,,0.00,WUHU21623XXSP,2013-02-01 14:30:00,
2013-02-01 09:32:00,19.0,13.5,29.82,NW,315,8.3,9.4,79,0.00,,,0.00,WUHU21623XXSP,2013-02-01 14:32:00,
2013-02-01 09:34:00,19.0,13.5,29.82,NW,315,8.7,9.4,79,0.00,,,0.00,WUHU21623XXSP,2013-02-01 14:34:00,
2013-02-01 09:36:00,18.7,13.2,29.82,West,270,3.4,8.7,79,0.00,,,0.00,WUHU21623XXSP,2013-02-01 14:36:00,
2013-02-01 09:38:00,18.9,13.3,29.82,NW,315,6.5,8.7,79,0.00,,,0.00,WUHU21623XXSP,2013-02-01 14:38:00,
2013-02-01 09:41:00,18.9,13.6,29.82,NW,315,10.7,10.7,80,0.00,,,0.00,WUHU21623XXSP,2013-02-01 14:41:00,
2013-02-01 09:43:00,18.9,13.6,29.83,WNW,292,4.3,10.7,80,0.00,,,0.00,WUHU21623XXSP,2013-02-01 14:43:00,
2013-02-01 09:45:00,19.2,14.0,29.82,NW,315,5.8,10.7,80,0.00,,,0.00,WUHU21623XXSP,2013-02-01 14:45:00,
2013-02-01 09:47:00,19.2,13.7,29.83,North,0,5.1,10.7,79,0.00,,,0.00,WUHU21623XXSP,2013-02-01 14:47:00,
2013-02-01 09:49:00,19.0,13.5,29.83,North,0,4.3,10.7,79,0.00,,,0.00,WUHU21623XXSP,2013-02-01 14:49:00,
2013-02-01 09:51:00,19.0,13.5,29.83,NNE,22,10.3,10.3,79,0.00,,,0.00,WUHU21623XXSP,2013-02-01 14:51:00,
2013-02-01 09:53:00,19.2,13.4,29.83,WNW,292,7.4,10.3,78,0.00,,,0.00,WUHU21623XXSP,2013-02-01 14:53:00,
2013-02-01 09:56:00,19.2,13.4,29.83,NW,315,0.0,10.3,78,0.00,,,0.00,WUHU21623XXSP,2013-02-01 14:56:00,
2013-02-01 09:58:00,19.6,13.7,29.84,NW,315,8.9,10.3,78,0.00,,,0.00,WUHU21623XXSP,2013-02-01 14:58:00,
2013-02-01 10:00:00,19.8,13.9,29.84,NNW,337,3.4,10.3,78,0.00,,,0.00,WUHU21623XXSP,2013-02-01 15:00:00,
2013-02-01 10:02:00,19.6,13.4,29.84,NNW,337,12.1,12.1,77,0.00,,,0.00,WUHU21623XXSP,2013-02-01 15:02:00,
2013-02-01 10:04:00,19.6,13.4,29.84,SW,225,5.8,12.1,77,0.00,,,0.00,WUHU21623XXSP,2013-02-01 15:04:00,
2013-02-01 10:06:00,19.2,12.5,29.84,WNW,292,4.0,12.1,75,0.00,,,0.00,WUHU21623XXSP,2013-02-01 15:06:00,
2013-02-01 10:08:00,19.2,13.1,29.84,WNW,292,2.7,12.1,77,0.00,,,0.00,WUHU21623XXSP,2013-02-01 15:08:00,
2013-02-01 10:10:00,19.6,13.4,29.84,West,270,2.9,12.1,77,0.00,,,0.00,WUHU21623XXSP,2013-02-01 15:10:00,
2013-02-01 10:13:00,19.9,13.8,29.83,NNW,337,6.3,6.3,77,0.00,,,0.00,WUHU21623XXSP,2013-02-01 15:13:00,
2013-02-01 10:15:00,20.3,14.2,29.83,NNW,337,9.6,9.6,77,0.00,,,0.00,WUHU21623XXSP,2013-02-01 15:15:00,
2013-02-01 10:17:00,19.8,13.3,29.84,WNW,292,8.1,9.6,76,0.00,,,0.00,WUHU21623XXSP,2013-02-01 15:17:00,
2013-02-01 10:19:00,19.6,13.4,29.84,NW,315,6.7,9.6,77,0.00,,,0.00,WUHU21623XXSP,2013-02-01 15:19:00,
2013-02-01 10:21:00,19.2,12.8,29.84,NNW,337,4.3,9.6,76,0.00,,,0.00,WUHU21623XXSP,2013-02-01 15:21:00,
2013-02-01 10:23:00,19.2,13.1,29.84,North,0,10.3,10.3,77,0.00,,,0.00,WUHU21623XXSP,2013-02-01 15:23:00,
2013-02-01 10:25:00,19.2,13.4,29.84,NNW,337,6.5,10.3,78,0.00,,,0.00,WUHU21623XXSP,2013-02-01 15:25:00,
2013-02-01 10:28:00,19.2,13.1,29.84,North,0,8.3,10.3,77,0.00,,,0.00,WUHU21623XXSP,2013-02-01 15:28:00,
2013-02-01 10:30:00,19.0,12.9,29.85,NNW,337,7.4,10.3,77,0.00,,,0.00,WUHU21623XXSP,2013-02-01 15:30:00,
2013-02-01 10:32:00,19.2,12.8,29.84,NW,315,10.3,10.3,76,0.00,,,0.00,WUHU21623XXSP,2013-02-01 15:32:00,
2013-02-01 10:34:00,19.2,12.8,29.85,NNW,337,13.6,13.6,76,0.00,,,0.00,WUHU21623XXSP,2013-02-01 15:34:00,
2013-02-01 10:36:00,19.2,12.5,29.85,NW,315,7.6,13.6,75,0.00,,,0.00,WUHU21623XXSP,2013-02-01 15:36:00,
2013-02-01 10:38:00,18.7,12.3,29.85,NW,315,6.9,13.6,76,0.00,,,0.00,WUHU21623XXSP,2013-02-01 15:38:00,
2013-02-01 10:40:00,18.5,12.1,29.84,WNW,292,10.1,13.6,76,0.00,,,0.00,WUHU21623XXSP,2013-02-01 15:40:00,
2013-02-01 10:43:00,18.9,12.1,29.84,NNW,337,8.3,13.6,75,0.00,,,0.00,WUHU21623XXSP,2013-02-01 15:43:00,
2013-02-01 10:45:00,18.9,12.1,29.84,NW,315,8.7,10.1,75,0.00,,,0.00,WUHU21623XXSP,2013-02-01 15:45:00,
2013-02-01 10:47:00,19.2,12.5,29.85,North,0,8.1,10.1,75,0.00,,,0.00,WUHU21623XXSP,2013-02-01 15:47:00,
2013-02-01 10:49:00,19.2,12.5,29.84,NW,315,8.5,10.1,75,0.00,,,0.00,WUHU21623XXSP,2013-02-01 15:49:00,
2013-02-01 10:51:00,19.6,13.1,29.84,NW,315,11.2,11.2,76,0.00,,,0.00,WUHU21623XXSP,2013-02-01 15:51:00,
2013-02-01 10:53:00,19.2,12.2,29.85,NW,315,11.2,11.2,74,0.00,,,0.00,WUHU21623XXSP,2013-02-01 15:53:00,
2013-02-01 10:55:00,19.2,12.5,29.85,NNW,337,14.5,14.5,75,0.00,,,0.00,WUHU21623XXSP,2013-02-01 15:55:00,
2013-02-01 10:58:00,19.2,12.8,29.85,WNW,292,4.9,14.5,76,0.00,,,0.00,WUHU21623XXSP,2013-02-01 15:58:00,
2013-02-01 11:00:00,19.6,13.1,29.85,NW,315,11.2,14.5,76,0.00,,,0.00,WUHU21623XXSP,2013-02-01 16:00:00,
2013-02-01 11:02:00,19.2,12.5,29.85,NNW,337,6.5,14.5,75,0.00,,,0.00,WUHU21623XXSP,2013-02-01 16:02:00,
2013-02-01 11:04:00,19.2,12.8,29.85,NNW,337,6.5,14.5,76,0.00,,,0.00,WUHU21623XXSP,2013-02-01 16:04:00,
2013-02-01 11:06:00,19.0,12.3,29.86,NNW,337,8.9,11.2,75,0.00,,,0.00,WUHU21623XXSP,2013-02-01 16:06:00,
2013-02-01 11:08:00,18.7,11.7,29.85,NW,315,6.7,11.2,74,0.00,,,0.00,WUHU21623XXSP,2013-02-01 16:08:00,
2013-02-01 11:10:00,18.7,11.7,29.85,NW,315,6.7,8.9,74,0.00,,,0.00,WUHU21623XXSP,2013-02-01 16:10:00,
2013-02-01 11:13:00,18.7,11.7,29.85,NW,315,6.7,8.9,74,0.00,,,0.00,WUHU21623XXSP,2013-02-01 16:13:00,
2013-02-01 11:15:00,18.9,11.8,29.85,NW,315,7.2,8.9,74,0.00,,,0.00,WUHU21623XXSP,2013-02-01 16:15:00,
2013-02-01 11:17:00,18.7,12.0,29.85,WNW,292,1.6,7.2,75,0.00,,,0.00,WUHU21623XXSP,2013-02-01 16:17:00,
2013-02-01 11:19:00,18.9,11.5,29.85,NW,315,7.4,7.4,73,0.00,,,0.00,WUHU21623XXSP,2013-02-01 16:19:00,
2013-02-01 11:21:00,18.5,11.2,29.85,West,270,6.0,7.4,73,0.00,,,0.00,WUHU21623XXSP,2013-02-01 16:21:00,
2013-02-01 11:23:00,18.9,11.5,29.85,West,270,9.4,9.4,73,0.00,,,0.00,WUHU21623XXSP,2013-02-01 16:23:00,
2013-02-01 11:25:00,19.2,11.9,29.85,West,270,9.4,9.4,73,0.00,,,0.00,WUHU21623XXSP,2013-02-01 16:25:00,
2013-02-01 11:28:00,19.2,11.9,29.85,WSW,247,7.4,9.4,73,0.00,,,0.00,WUHU21623XXSP,2013-02-01 16:28:00,
2013-02-01 11:30:00,19.2,11.9,29.85,WSW,247,7.4,9.4,73,0.00,,,0.00,WUHU21623XXSP,2013-02-01 16:30:00,
2013-02-01 11:32:00,19.8,11.8,29.85,WNW,292,6.5,9.4,71,0.00,,,0.00,WUHU21623XXSP,2013-02-01 16:32:00,
2013-02-01 11:34:00,19.8,11.8,29.85,WNW,292,6.5,9.4,71,0.00,,,0.00,WUHU21623XXSP,2013-02-01 16:34:00,
2013-02-01 11:36:00,19.8,11.8,29.85,WNW,292,6.5,7.4,71,0.00,,,0.00,WUHU21623XXSP,2013-02-01 16:36:00,
2013-02-01 11:38:00,19.6,11.6,29.85,NW,315,7.2,7.4,71,0.00,,,0.00,WUHU21623XXSP,2013-02-01 16:38:00,
2013-02-01 11:40:00,19.8,11.5,29.85,NW,315,8.3,8.3,70,0.00,,,0.00,WUHU21623XXSP,2013-02-01 16:40:00,
2013-02-01 11:43:00,19.8,11.1,29.85,WNW,292,6.5,8.3,69,0.00,,,0.00,WUHU21623XXSP,2013-02-01 16:43:00,
2013-02-01 11:45:00,19.8,11.1,29.85,WNW,292,6.5,8.3,69,0.00,,,0.00,WUHU21623XXSP,2013-02-01 16:45:00,
2013-02-01 11:47:00,19.8,11.1,29.85,NW,315,7.6,8.3,69,0.00,,,0.00,WUHU21623XXSP,2013-02-01 16:47:00,
2013-02-01 11:49:00,20.3,11.7,29.86,West,270,3.8,8.3,69,0.00,,,0.00,WUHU21623XXSP,2013-02-01 16:49:00,
2013-02-01 11:51:00,20.5,11.9,29.86,West,270,3.8,7.6,69,0.00,,,0.00,WUHU21623XXSP,2013-02-01 16:51:00,
2013-02-01 11:53:00,20.5,11.5,29.85,NNW,337,10.5,10.5,68,0.00,,,0.00,WUHU21623XXSP,2013-02-01 16:53:00,
2013-02-01 11:55:00,20.5,11.5,29.85,NW,315,11.6,11.6,68,0.00,,,0.00,WUHU21623XXSP,2013-02-01 16:55:00,
2013-02-01 11:57:00,20.5,11.2,29.86,NW,315,7.2,11.6,67,0.00,,,0.00,WUHU21623XXSP,2013-02-01 16:57:00,
2013-02-01 12:00:00,20.5,11.2,29.85,NNW,337,7.6,11.6,67,0.00,,,0.00,WUHU21623XXSP,2013-02-01 17:00:00,
2013-02-01 12:02:00,20.5,11.2,29.86,NNW,337,7.6,11.6,67,0.00,,,0.00,WUHU21623XXSP,2013-02-01 17:02:00,
2013-02-01 12:04:00,20.5,11.2,29.86,NNW,337,7.6,11.6,67,0.00,,,0.00,WUHU21623XXSP,2013-02-01 17:04:00,
2013-02-01 12:06:00,20.5,11.2,29.86,NNW,337,7.6,7.6,67,0.00,,,0.00,WUHU21623XXSP,2013-02-01 17:06:00,
2013-02-01 12:08:00,20.5,11.2,29.85,NNW,337,7.6,7.6,67,0.00,,,0.00,WUHU21623XXSP,2013-02-01 17:08:00,
2013-02-01 12:10:00,20.8,11.2,29.86,West,270,7.4,7.6,67,0.00,,,0.00,WUHU21623XXSP,2013-02-01 17:10:00,
2013-02-01 12:13:00,20.8,11.5,29.86,West,270,7.4,7.6,67,0.00,,,0.00,WUHU21623XXSP,2013-02-01 17:13:00,
2013-02-01 12:15:00,20.8,11.2,29.86,WNW,292,6.9,7.6,66,0.00,,,0.00,WUHU21623XXSP,2013-02-01 17:15:00,
2013-02-01 12:17:00,20.5,10.5,29.86,NW,315,8.3,8.3,65,0.00,,,0.00,WUHU21623XXSP,2013-02-01 17:17:00,
2013-02-01 12:19:00,19.9,9.9,29.86,NW,315,10.5,10.5,65,0.00,,,0.00,WUHU21623XXSP,2013-02-01 17:19:00,
2013-02-01 12:21:00,19.6,9.9,29.86,NNW,337,9.4,10.5,66,0.00,,,0.00,WUHU21623XXSP,2013-02-01 17:21:00,
2013-02-01 12:23:00,19.2,9.6,29.86,NNW,337,7.4,10.5,66,0.00,,,0.00,WUHU21623XXSP,2013-02-01 17:23:00,
2013-02-01 12:25:00,19.2,9.6,29.86,NW,315,7.2,10.5,66,0.00,,,0.00,WUHU21623XXSP,2013-02-01 17:25:00,
2013-02-01 12:27:00,18.9,9.6,29.87,NNW,337,13.2,13.2,67,0.00,,,0.00,WUHU21623XXSP,2013-02-01 17:27:00,
2013-02-01 12:29:00,18.9,9.6,29.86,NNW,337,13.2,13.2,67,0.00,,,0.00,WUHU21623XXSP,2013-02-01 17:29:00,
2013-02-01 12:32:00,18.9,9.6,29.86,NNW,337,13.2,13.2,67,0.00,,,0.00,WUHU21623XXSP,2013-02-01 17:32:00,
2013-02-01 12:34:00,19.2,9.6,29.87,WNW,292,8.1,13.2,66,0.00,,,0.00,WUHU21623XXSP,2013-02-01 17:34:00,
2013-02-01 12:36:00,19.2,9.6,29.86,WNW,292,8.1,13.2,66,0.00,,,0.00,WUHU21623XXSP,2013-02-01 17:36:00,
2013-02-01 12:38:00,19.2,9.6,29.87,WNW,292,8.1,13.2,66,0.00,,,0.00,WUHU21623XXSP,2013-02-01 17:38:00,
2013-02-01 12:40:00,21.4,11.0,29.86,WSW,247,7.4,13.2,64,0.00,,,0.00,WUHU21623XXSP,2013-02-01 17:40:00,
2013-02-01 12:42:00,21.4,11.0,29.87,WSW,247,7.4,8.1,64,0.00,,,0.00,WUHU21623XXSP,2013-02-01 17:42:00,
2013-02-01 12:45:00,21.4,10.7,29.87,WSW,247,7.4,8.1,63,0.00,,,0.00,WUHU21623XXSP,2013-02-01 17:45:00,
2013-02-01 12:47:00,22.6,11.9,29.87,WSW,247,7.4,8.1,63,0.00,,,0.00,WUHU21623XXSP,2013-02-01 17:47:00,
2013-02-01 12:49:00,21.9,11.2,29.87,NW,315,8.3,8.3,63,0.00,,,0.00,WUHU21623XXSP,2013-02-01 17:49:00,
2013-02-01 12:51:00,21.9,11.5,29.87,NNW,337,9.6,9.6,64,0.00,,,0.00,WUHU21623XXSP,2013-02-01 17:51:00,
2013-02-01 12:53:00,21.6,10.8,29.87,NW,315,7.4,9.6,63,0.00,,,0.00,WUHU21623XXSP,2013-02-01 17:53:00,
2013-02-01 12:55:00,21.4,11.0,29.87,WSW,247,10.7,10.7,64,0.00,,,0.00,WUHU21623XXSP,2013-02-01 17:55:00,
2013-02-01 12:57:00,21.4,11.4,29.87,NW,315,11.9,11.9,65,0.00,,,0.00,WUHU21623XXSP,2013-02-01 17:57:00,
2013-02-01 13:00:00,21.0,11.0,29.87,NNW,337,10.3,11.9,65,0.00,,,0.00,WUHU21623XXSP,2013-02-01 18:00:00,
2013-02-01 13:02:00,21.0,11.0,29.87,WSW,247,6.9,11.9,65,0.00,,,0.00,WUHU21623XXSP,2013-02-01 18:02:00,
2013-02-01 13:04:00,22.3,11.9,29.87,West,270,6.9,11.9,64,0.00,,,0.00,WUHU21623XXSP,2013-02-01 18:04:00,
2013-02-01 13:06:00,21.9,11.5,29.88,West,270,6.9,11.9,64,0.00,,,0.00,WUHU21623XXSP,2013-02-01 18:06:00,
2013-02-01 13:08:00,21.4,10.3,29.88,WSW,247,3.1,10.3,62,0.00,,,0.00,WUHU21623XXSP,2013-02-01 18:08:00,
2013-02-01 13:10:00,21.6,10.2,29.88,NW,315,9.8,9.8,61,0.00,,,0.00,WUHU21623XXSP,2013-02-01 18:10:00,
2013-02-01 13:12:00,21.6,10.2,29.88,WSW,247,15.9,15.9,61,0.00,,,0.00,WUHU21623XXSP,2013-02-01 18:12:00,
2013-02-01 13:15:00,21.4,10.3,29.88,NW,315,7.2,15.9,62,0.00,,,0.00,WUHU21623XXSP,2013-02-01 18:15:00,
2013-02-01 13:17:00,21.7,10.7,29.89,NW,315,9.4,15.9,62,0.00,,,0.00,WUHU21623XXSP,2013-02-01 18:17:00,
2013-02-01 13:19:00,21.0,10.0,29.88,West,270,2.2,15.9,62,0.00,,,0.00,WUHU21623XXSP,2013-02-01 18:19:00,
2013-02-01 13:21:00,21.4,10.7,29.89,North,0,6.9,15.9,63,0.00,,,0.00,WUHU21623XXSP,2013-02-01 18:21:00,
2013-02-01 13:23:00,21.4,10.0,29.88,WSW,247,8.9,9.4,61,0.00,,,0.00,WUHU21623XXSP,2013-02-01 18:23:00,
2013-02-01 13:25:00,21.6,10.2,29.88,NW,315,8.1,9.4,61,0.00,,,0.00,WUHU21623XXSP,2013-02-01 18:25:00,
2013-02-01 13:27:00,21.0,9.7,29.89,NNW,337,15.9,15.9,61,0.00,,,0.00,WUHU21623XXSP,2013-02-01 18:27:00,
2013-02-01 13:29:00,20.5,9.5,29.89,West,270,7.6,15.9,62,0.00,,,0.00,WUHU21623XXSP,2013-02-01 18:29:00,
2013-02-01 13:32:00,19.9,8.9,29.89,NW,315,7.8,15.9,62,0.00,,,0.00,WUHU21623XXSP,2013-02-01 18:32:00,
2013-02-01 13:34:00,20.1,9.4,29.89,WSW,247,8.7,15.9,63,0.00,,,0.00,WUHU21623XXSP,2013-02-01 18:34:00,
2013-02-01 13:36:00,20.8,9.8,29.89,WSW,247,14.5,15.9,62,0.00,,,0.00,WUHU21623XXSP,2013-02-01 18:36:00,
2013-02-01 13:38:00,21.7,10.7,29.89,WSW,247,6.7,14.5,62,0.00,,,0.00,WUHU21623XXSP,2013-02-01 18:38:00,
2013-02-01 13:40:00,22.5,11.0,29.89,WSW,247,16.8,16.8,61,0.00,,,0.00,WUHU21623XXSP,2013-02-01 18:40:00,
2013-02-01 13:42:00,22.3,10.5,29.89,NNW,337,6.3,16.8,60,0.00,,,0.00,WUHU21623XXSP,2013-02-01 18:42:00,
2013-02-01 13:44:00,22.1,9.9,29.90,West,270,8.1,16.8,59,0.00,,,0.00,WUHU21623XXSP,2013-02-01 18:44:00,
2013-02-01 13:47:00,21.4,9.2,29.89,West,270,8.1,16.8,59,0.00,,,0.00,WUHU21623XXSP,2013-02-01 18:47:00,
2013-02-01 13:49:00,21.0,9.3,29.90,NW,315,6.7,16.8,60,0.00,,,0.00,WUHU21623XXSP,2013-02-01 18:49:00,
2013-02-01 13:51:00,21.0,9.3,29.90,WSW,247,9.2,9.2,60,0.00,,,0.00,WUHU21623XXSP,2013-02-01 18:51:00,
2013-02-01 13:53:00,21.4,10.0,29.90,WSW,247,5.8,9.2,61,0.00,,,0.00,WUHU21623XXSP,2013-02-01 18:53:00,
2013-02-01 13:55:00,21.4,9.7,29.90,WSW,247,5.8,9.2,60,0.00,,,0.00,WUHU21623XXSP,2013-02-01 18:55:00,
2013-02-01 13:57:00,21.4,9.7,29.90,WSW,247,5.8,9.2,60,0.00,,,0.00,WUHU21623XXSP,2013-02-01 18:57:00,
2013-02-01 13:59:00,21.4,8.8,29.90,WSW,247,8.3,9.2,58,0.00,,,0.00,WUHU21623XXSP,2013-02-01 18:59:00,
2013-02-01 14:02:00,21.0,8.5,29.90,NW,315,6.7,8.3,58,0.00,,,0.00,WUHU21623XXSP,2013-02-01 19:02:00,
2013-02-01 14:04:00,21.0,8.9,29.90,NW,315,11.0,11.0,59,0.00,,,0.00,WUHU21623XXSP,2013-02-01 19:04:00,
2013-02-01 14:06:00,20.5,8.4,29.90,West,270,10.5,11.0,59,0.00,,,0.00,WUHU21623XXSP,2013-02-01 19:06:00,
2013-02-01 14:08:00,20.3,8.9,29.90,WNW,292,7.8,11.0,61,0.00,,,0.00,WUHU21623XXSP,2013-02-01 19:08:00,
2013-02-01 14:10:00,20.3,8.9,29.90,WNW,292,7.8,11.0,61,0.00,,,0.00,WUHU21623XXSP,2013-02-01 19:10:00,
2013-02-01 14:12:00,20.3,8.9,29.90,WNW,292,7.8,11.0,61,0.00,,,0.00,WUHU21623XXSP,2013-02-01 19:12:00,
2013-02-01 14:14:00,19.6,8.9,29.90,WNW,292,7.8,10.5,63,0.00,,,0.00,WUHU21623XXSP,2013-02-01 19:14:00,
2013-02-01 14:17:00,19.6,8.6,29.90,NW,315,6.9,7.8,62,0.00,,,0.00,WUHU21623XXSP,2013-02-01 19:17:00,
2013-02-01 14:19:00,19.6,8.6,29.90,NW,315,6.9,7.8,62,0.00,,,0.00,WUHU21623XXSP,2013-02-01 19:19:00,
2013-02-01 14:21:00,19.4,8.4,29.90,NW,315,6.9,7.8,62,0.00,,,0.00,WUHU21623XXSP,2013-02-01 19:21:00,
2013-02-01 14:23:00,19.4,8.4,29.90,WNW,292,8.3,8.3,62,0.00,,,0.00,WUHU21623XXSP,2013-02-01 19:23:00,
2013-02-01 14:25:00,19.8,8.7,29.91,NW,315,11.2,11.2,62,0.00,,,0.00,WUHU21623XXSP,2013-02-01 19:25:00,
2013-02-01 14:27:00,19.8,8.7,29.91,WNW,292,7.2,11.2,62,0.00,,,0.00,WUHU21623XXSP,2013-02-01 19:27:00,
2013-02-01 14:29:00,19.6,9.2,29.91,West,270,4.3,11.2,64,0.00,,,0.00,WUHU21623XXSP,2013-02-01 19:29:00,
2013-02-01 14:32:00,19.9,9.9,29.91,NW,315,6.7,11.2,65,0.00,,,0.00,WUHU21623XXSP,2013-02-01 19:32:00,
2013-02-01 14:34:00,19.9,10.6,29.91,NW,315,6.7,11.2,67,0.00,,,0.00,WUHU21623XXSP,2013-02-01 19:34:00,
2013-02-01 14:36:00,19.9,10.6,29.91,West,270,6.7,7.2,67,0.00,,,0.00,WUHU21623XXSP,2013-02-01 19:36:00,
2013-02-01 14:38:00,19.2,11.2,29.91,WNW,292,5.1,6.7,71,0.00,,,0.00,WUHU21623XXSP,2013-02-01 19:38:00,
2013-02-01 14:40:00,18.9,10.9,29.91,WNW,292,5.1,6.7,71,0.00,,,0.00,WUHU21623XXSP,2013-02-01 19:40:00,
2013-02-01 14:42:00,18.5,11.8,29.92,West,270,4.5,6.7,75,0.00,,,0.00,WUHU21623XXSP,2013-02-01 19:42:00,
2013-02-01 14:44:00,18.5,11.2,29.92,NW,315,8.1,8.1,73,0.00,,,0.00,WUHU21623XXSP,2013-02-01 19:44:00,
2013-02-01 14:47:00,18.3,11.0,29.92,NW,315,7.2,8.1,73,0.00,,,0.00,WUHU21623XXSP,2013-02-01 19:47:00,
2013-02-01 14:49:00,18.3,11.0,29.92,West,270,6.5,8.1,73,0.00,,,0.00,WUHU21623XXSP,2013-02-01 19:49:00,
2013-02-01 14:51:00,18.3,10.4,29.92,NW,315,7.2,8.1,71,0.00,,,0.00,WUHU21623XXSP,2013-02-01 19:51:00,
2013-02-01 14:53:00,18.3,10.1,29.92,NW,315,7.2,8.1,70,0.00,,,0.00,WUHU21623XXSP,2013-02-01 19:53:00,
2013-02-01 14:55:00,19.2,10.3,29.92,NNW,337,7.2,7.2,68,0.00,,,0.00,WUHU21623XXSP,2013-02-01 19:55:00,
2013-02-01 14:57:00,19.6,11.0,29.92,WSW,247,6.5,7.2,69,0.00,,,0.00,WUHU21623XXSP,2013-02-01 19:57:00,
2013-02-01 14:59:00,19.9,10.3,29.93,WSW,247,6.3,7.2,66,0.00,,,0.00,WUHU21623XXSP,2013-02-01 19:59:00,
2013-02-01 15:02:00,19.9,10.3,29.92,WSW,247,5.1,7.2,66,0.00,,,0.00,WUHU21623XXSP,2013-02-01 20:02:00,
2013-02-01 15:04:00,20.1,9.8,29.92,NNW,337,7.6,7.6,64,0.00,,,0.00,WUHU21623XXSP,2013-02-01 20:04:00,
2013-02-01 15:06:00,20.1,9.8,29.92,NNW,337,7.6,7.6,64,0.00,,,0.00,WUHU21623XXSP,2013-02-01 20:06:00,
2013-02-01 15:08:00,20.1,9.8,29.92,NNW,337,7.6,7.6,64,0.00,,,0.00,WUHU21623XXSP,2013-02-01 20:08:00,
2013-02-01 15:10:00,19.0,9.4,29.92,WNW,292,4.7,7.6,66,0.00,,,0.00,WUHU21623XXSP,2013-02-01 20:10:00,
2013-02-01 15:12:00,18.9,9.6,29.92,North,0,6.9,7.6,67,0.00,,,0.00,WUHU21623XXSP,2013-02-01 20:12:00,
2013-02-01 15:14:00,18.7,9.4,29.93,WNW,292,4.5,7.6,67,0.00,,,0.00,WUHU21623XXSP,2013-02-01 20:14:00,
2013-02-01 15:16:00,18.3,9.5,29.92,WNW,292,7.4,7.6,68,0.00,,,0.00,WUHU21623XXSP,2013-02-01 20:16:00,
2013-02-01 15:19:00,18.3,9.5,29.93,NNW,337,2.7,7.4,68,0.00,,,0.00,WUHU21623XXSP,2013-02-01 20:19:00,
2013-02-01 15:21:00,18.0,9.5,29.93,WNW,292,5.8,7.4,69,0.00,,,0.00,WUHU21623XXSP,2013-02-01 20:21:00,
2013-02-01 15:23:00,17.8,9.3,29.93,NNW,337,7.2,7.4,69,0.00,,,0.00,WUHU21623XXSP,2013-02-01 20:23:00,
2013-02-01 15:25:00,17.8,9.7,29.93,WNW,292,6.9,7.4,70,0.00,,,0.00,WUHU21623XXSP,2013-02-01 20:25:00,
2013-02-01 15:27:00,17.8,9.7,29.94,NNW,337,5.4,7.2,70,0.00,,,0.00,WUHU21623XXSP,2013-02-01 20:27:00,
2013-02-01 15:29:00,17.4,9.3,29.94,NNW,337,10.5,10.5,70,0.00,,,0.00,WUHU21623XXSP,2013-02-01 20:29:00,
2013-02-01 15:31:00,17.4,9.0,29.94,NW,315,7.8,10.5,69,0.00,,,0.00,WUHU21623XXSP,2013-02-01 20:31:00,
2013-02-01 15:34:00,17.4,9.0,29.94,WNW,292,5.8,10.5,69,0.00,,,0.00,WUHU21623XXSP,2013-02-01 20:34:00,
2013-02-01 15:36:00,17.4,9.0,29.94,NW,315,6.3,10.5,69,0.00,,,0.00,WUHU21623XXSP,2013-02-01 20:36:00,
2013-02-01 15:38:00,17.4,9.3,29.94,WNW,292,5.4,10.5,70,0.00,,,0.00,WUHU21623XXSP,2013-02-01 20:38:00,
2013-02-01 15:40:00,17.4,9.0,29.94,NW,315,5.4,7.8,69,0.00,,,0.00,WUHU21623XXSP,2013-02-01 20:40:00,
2013-02-01 15:42:00,17.4,8.6,29.94,NW,315,5.4,6.3,68,0.00,,,0.00,WUHU21623XXSP,2013-02-01 20:42:00,
2013-02-01 15:44:00,17.4,9.0,29.94,NNW,337,8.3,8.3,69,0.00,,,0.00,WUHU21623XXSP,2013-02-01 20:44:00,
2013-02-01 15:46:00,17.4,9.0,29.94,NNW,337,8.3,8.3,69,0.00,,,0.00,WUHU21623XXSP,2013-02-01 20:46:00,
2013-02-01 15:48:00,17.4,9.0,29.94,NNW,337,8.3,8.3,69,0.00,,,0.00,WUHU21623XXSP,2013-02-01 20:48:00,
2013-02-01 15:51:00,17.4,9.0,29.94,NNW,337,8.3,8.3,69,0.00,,,0.00,WUHU21623XXSP,2013-02-01 20:51:00,
2013-02-01 15:53:00,17.4,9.0,29.94,NNW,337,8.3,8.3,69,0.00,,,0.00,WUHU21623XXSP,2013-02-01 20:53:00,
2013-02-01 15:55:00,17.4,9.0,29.94,NNW,337,8.3,8.3,69,0.00,,,0.00,WUHU21623XXSP,2013-02-01 20:55:00,
2013-02-01 15:57:00,17.1,9.0,29.95,NW,315,7.8,8.3,70,0.00,,,0.00,WUHU21623XXSP,2013-02-01 20:57:00,
2013-02-01 15:59:00,16.9,8.8,29.95,West,270,6.3,8.3,70,0.00,,,0.00,WUHU21623XXSP,2013-02-01 20:59:00,
2013-02-01 16:01:00,17.2,9.1,29.95,West,270,6.3,8.3,70,0.00,,,0.00,WUHU21623XXSP,2013-02-01 21:01:00,
2013-02-01 16:03:00,17.1,9.2,29.95,NW,315,7.4,8.3,71,0.00,,,0.00,WUHU21623XXSP,2013-02-01 21:03:00,
2013-02-01 16:06:00,16.9,9.1,29.95,WNW,292,9.2,9.2,71,0.00,,,0.00,WUHU21623XXSP,2013-02-01 21:06:00,
2013-02-01 16:08:00,16.9,9.4,29.95,WNW,292,4.3,9.2,72,0.00,,,0.00,WUHU21623XXSP,2013-02-01 21:08:00,
2013-02-01 16:10:00,16.9,9.4,29.95,West,270,7.8,9.2,72,0.00,,,0.00,WUHU21623XXSP,2013-02-01 21:10:00,
2013-02-01 16:12:00,16.9,9.7,29.94,WNW,292,6.0,9.2,73,0.00,,,0.00,WUHU21623XXSP,2013-02-01 21:12:00,
2013-02-01 16:14:00,16.9,9.7,29.95,NW,315,4.9,9.2,73,0.00,,,0.00,WUHU21623XXSP,2013-02-01 21:14:00,
2013-02-01 16:16:00,16.9,9.9,29.95,NW,315,8.3,8.3,74,0.00,,,0.00,WUHU21623XXSP,2013-02-01 21:16:00,
2013-02-01 16:18:00,16.9,9.9,29.95,NW,315,6.0,8.3,74,0.00,,,0.00,WUHU21623XXSP,2013-02-01 21:18:00,
2013-02-01 16:21:00,16.7,9.8,29.95,WNW,292,3.8,8.3,74,0.00,,,0.00,WUHU21623XXSP,2013-02-01 21:21:00,
2013-02-01 16:23:00,16.5,9.6,29.95,WNW,292,1.3,8.3,74,0.00,,,0.00,WUHU21623XXSP,2013-02-01 21:23:00,
2013-02-01 16:25:00,16.5,9.9,29.95,NNW,337,5.4,8.3,75,0.00,,,0.00,WUHU21623XXSP,2013-02-01 21:25:00,
2013-02-01 16:27:00,16.3,9.7,29.95,West,270,3.6,6.0,75,0.00,,,0.00,WUHU21623XXSP,2013-02-01 21:27:00,
2013-02-01 16:29:00,16.3,10.0,29.95,NW,315,2.2,5.4,76,0.00,,,0.00,WUHU21623XXSP,2013-02-01 21:29:00,
2013-02-01 16:31:00,16.3,10.0,29.95,West,270,0.0,5.4,76,0.00,,,0.00,WUHU21623XXSP,2013-02-01 21:31:00,
2013-02-01 16:33:00,16.3,10.0,29.95,NW,315,5.4,5.4,76,0.00,,,0.00,WUHU21623XXSP,2013-02-01 21:33:00,
2013-02-01 16:36:00,16.3,10.0,29.96,NW,315,4.3,5.4,76,0.00,,,0.00,WUHU21623XXSP,2013-02-01 21:36:00,
2013-02-01 16:38:00,16.2,9.9,29.96,NNW,337,0.0,5.4,76,0.00,,,0.00,WUHU21623XXSP,2013-02-01 21:38:00,
2013-02-01 16:40:00,16.2,10.2,29.96,NNW,337,0.0,5.4,77,0.00,,,0.00,WUHU21623XXSP,2013-02-01 21:40:00,
2013-02-01 16:42:00,16.3,10.3,29.96,WNW,292,5.6,5.6,77,0.00,,,0.00,WUHU21623XXSP,2013-02-01 21:42:00,
2013-02-01 16:44:00,16.3,10.3,29.96,WNW,292,3.1,5.6,77,0.00,,,0.00,WUHU21623XXSP,2013-02-01 21:44:00,
2013-02-01 16:46:00,16.3,10.3,29.96,NW,315,6.3,6.3,77,0.00,,,0.00,WUHU21623XXSP,2013-02-01 21:46:00,
2013-02-01 16:48:00,16.5,10.5,29.96,WNW,292,6.9,6.9,77,0.00,,,0.00,WUHU21623XXSP,2013-02-01 21:48:00,
2013-02-01 16:51:00,16.5,10.8,29.97,WNW,292,5.8,6.9,78,0.00,,,0.00,WUHU21623XXSP,2013-02-01 21:51:00,
2013-02-01 16:53:00,16.5,10.8,29.97,West,270,11.2,11.2,78,0.00,,,0.00,WUHU21623XXSP,2013-02-01 21:53:00,
2013-02-01 16:55:00,16.7,11.3,29.97,West,270,1.8,11.2,79,0.00,,,0.00,WUHU21623XXSP,2013-02-01 21:55:00,
2013-02-01 16:57:00,16.7,11.3,29.96,NW,315,7.6,11.2,79,0.00,,,0.00,WUHU21623XXSP,2013-02-01 21:57:00,
2013-02-01 16:59:00,16.9,11.7,29.97,WSW,247,6.9,11.2,80,0.00,,,0.00,WUHU21623XXSP,2013-02-01 21:59:00,
2013-02-01 17:01:00,16.9,11.7,29.97,WNW,292,5.8,11.2,80,0.00,,,0.00,WUHU21623XXSP,2013-02-01 22:01:00,
2013-02-01 17:03:00,16.9,12.0,29.97,West,270,3.4,7.6,81,0.00,,,0.00,WUHU21623XXSP,2013-02-01 22:03:00,
2013-02-01 17:06:00,16.9,12.3,29.97,West,270,2.7,7.6,82,0.00,,,0.00,WUHU21623XXSP,2013-02-01 22:06:00,
2013-02-01 17:08:00,16.9,12.3,29.97,West,270,2.7,6.9,82,0.00,,,0.00,WUHU21623XXSP,2013-02-01 22:08:00,
2013-02-01 17:10:00,16.9,12.3,29.97,WNW,292,5.8,5.8,82,0.00,,,0.00,WUHU21623XXSP,2013-02-01 22:10:00,
2013-02-01 17:12:00,16.9,12.3,29.97,West,270,3.8,5.8,82,0.00,,,0.00,WUHU21623XXSP,2013-02-01 22:12:00,
2013-02-01 17:14:00,16.9,12.3,29.97,WSW,247,6.3,6.3,82,0.00,,,0.00,WUHU21623XXSP,2013-02-01 22:14:00,
2013-02-01 17:16:00,16.9,12.3,29.97,West,270,7.4,7.4,82,0.00,,,0.00,WUHU21623XXSP,2013-02-01 22:16:00,
2013-02-01 17:18:00,16.7,12.3,29.97,WNW,292,5.6,7.4,83,0.00,,,0.00,WUHU21623XXSP,2013-02-01 22:18:00,
2013-02-01 17:21:00,16.7,12.3,29.97,West,270,4.5,7.4,83,0.00,,,0.00,WUHU21623XXSP,2013-02-01 22:21:00,
2013-02-01 17:23:00,16.7,12.3,29.97,WNW,292,1.3,7.4,83,0.00,,,0.00,WUHU21623XXSP,2013-02-01 22:23:00,
2013-02-01 17:25:00,16.7,12.3,29.97,WNW,292,3.8,7.4,83,0.00,,,0.00,WUHU21623XXSP,2013-02-01 22:25:00,
2013-02-01 17:27:00,16.7,12.3,29.98,West,270,0.0,5.6,83,0.00,,,0.00,WUHU21623XXSP,2013-02-01 22:27:00,
2013-02-01 17:29:00,16.7,12.6,29.97,West,270,1.6,4.5,84,0.00,,,0.00,WUHU21623XXSP,2013-02-01 22:29:00,
2013-02-01 17:31:00,16.7,12.6,29.97,WNW,292,6.7,6.7,84,0.00,,,0.00,WUHU21623XXSP,2013-02-01 22:31:00,
2013-02-01 17:33:00,16.7,12.6,29.97,WNW,292,6.7,6.7,84,0.00,,,0.00,WUHU21623XXSP,2013-02-01 22:33:00,
2013-02-01 17:35:00,16.7,12.6,29.98,WNW,292,5.8,6.7,84,0.00,,,0.00,WUHU21623XXSP,2013-02-01 22:35:00,
2013-02-01 17:38:00,16.9,12.8,29.98,WNW,292,5.4,6.7,84,0.00,,,0.00,WUHU21623XXSP,2013-02-01 22:38:00,
2013-02-01 17:40:00,16.9,12.8,29.98,West,270,4.9,6.7,84,0.00,,,0.00,WUHU21623XXSP,2013-02-01 22:40:00,
2013-02-01 17:42:00,16.9,12.8,29.98,West,270,5.6,6.7,84,0.00,,,0.00,WUHU21623XXSP,2013-02-01 22:42:00,
2013-02-01 17:44:00,16.9,12.8,29.98,WNW,292,4.5,5.8,84,0.00,,,0.00,WUHU21623XXSP,2013-02-01 22:44:00,
2013-02-01 17:46:00,16.9,12.8,29.99,WNW,292,6.3,6.3,84,0.00,,,0.00,WUHU21623XXSP,2013-02-01 22:46:00,
2013-02-01 17:48:00,16.9,12.8,29.99,West,270,3.8,6.3,84,0.00,,,0.00,WUHU21623XXSP,2013-02-01 22:48:00,
2013-02-01 17:51:00,16.9,12.8,29.99,West,270,7.6,7.6,84,0.00,,,0.00,WUHU21623XXSP,2013-02-01 22:51:00,
2013-02-01 17:53:00,16.9,12.8,29.99,WNW,292,9.6,9.6,84,0.00,,,0.00,WUHU21623XXSP,2013-02-01 22:53:00,
2013-02-01 17:55:00,17.1,12.9,29.99,WSW,247,6.3,9.6,84,0.00,,,0.00,WUHU21623XXSP,2013-02-01 22:55:00,
2013-02-01 17:57:00,17.1,12.9,29.99,West,270,6.9,9.6,84,0.00,,,0.00,WUHU21623XXSP,2013-02-01 22:57:00,
2013-02-01 17:59:00,17.2,13.1,29.99,West,270,7.6,9.6,84,0.00,,,0.00,WUHU21623XXSP,2013-02-01 22:59:00,
2013-02-01 18:01:00,17.2,13.1,29.99,WNW,292,4.3,9.6,84,0.00,,,0.00,WUHU21623XXSP,2013-02-01 23:01:00,
2013-02-01 18:03:00,17.2,13.1,29.99,NW,315,5.8,7.6,84,0.00,,,0.00,WUHU21623XXSP,2013-02-01 23:03:00,
2013-02-01 18:05:00,17.2,13.1,29.99,West,270,6.0,7.6,84,0.00,,,0.00,WUHU21623XXSP,2013-02-01 23:05:00,
2013-02-01 18:08:00,17.2,13.1,30.00,West,270,4.5,7.6,84,0.00,,,0.00,WUHU21623XXSP,2013-02-01 23:08:00,
2013-02-01 18:10:00,17.2,13.1,30.00,NW,315,5.1,6.0,84,0.00,,,0.00,WUHU21623XXSP,2013-02-01 23:10:00,
2013-02-01 18:12:00,17.2,13.1,30.00,WNW,292,8.1,8.1,84,0.00,,,0.00,WUHU21623XXSP,2013-02-01 23:12:00,
2013-02-01 18:14:00,17.2,13.4,30.00,WNW,292,8.7,8.7,85,0.00,,,0.00,WUHU21623XXSP,2013-02-01 23:14:00,
2013-02-01 18:16:00,17.2,13.4,30.00,WNW,292,9.8,9.8,85,0.00,,,0.00,WUHU21623XXSP,2013-02-01 23:16:00,
2013-02-01 18:18:00,17.2,13.4,30.00,WNW,292,8.9,9.8,85,0.00,,,0.00,WUHU21623XXSP,2013-02-01 23:18:00,
2013-02-01 18:20:00,17.2,13.4,30.00,WNW,292,8.9,9.8,85,0.00,,,0.00,WUHU21623XXSP,2013-02-01 23:20:00,
2013-02-01 18:23:00,17.2,13.4,30.00,West,270,5.8,9.8,85,0.00,,,0.00,WUHU21623XXSP,2013-02-01 23:23:00,
2013-02-01 18:25:00,17.2,13.4,30.00,NW,315,8.5,9.8,85,0.00,,,0.00,WUHU21623XXSP,2013-02-01 23:25:00,
2013-02-01 18:27:00,17.2,13.4,30.00,SW,225,7.8,8.9,85,0.00,,,0.00,WUHU21623XXSP,2013-02-01 23:27:00,
2013-02-01 18:29:00,17.2,13.4,30.01,NNW,337,0.9,8.9,85,0.00,,,0.00,WUHU21623XXSP,2013-02-01 23:29:00,
2013-02-01 18:31:00,17.2,13.4,30.00,NNW,337,0.9,8.5,85,0.00,,,0.00,WUHU21623XXSP,2013-02-01 23:31:00,
2013-02-01 18:33:00,17.2,13.4,30.00,NW,315,6.9,8.5,85,0.00,,,0.00,WUHU21623XXSP,2013-02-01 23:33:00,
2013-02-01 18:35:00,17.2,13.4,30.01,West,270,4.9,7.8,85,0.00,,,0.00,WUHU21623XXSP,2013-02-01 23:35:00,
2013-02-01 18:38:00,17.2,13.4,30.01,SW,225,11.6,11.6,85,0.00,,,0.00,WUHU21623XXSP,2013-02-01 23:38:00,
2013-02-01 18:40:00,17.2,13.4,30.01,WNW,292,11.0,11.6,85,0.00,,,0.00,WUHU21623XXSP,2013-02-01 23:40:00,
2013-02-01 18:42:00,17.2,13.4,30.01,WSW,247,6.7,11.6,85,0.00,,,0.00,WUHU21623XXSP,2013-02-01 23:42:00,
2013-02-01 18:44:00,17.2,13.4,30.01,WSW,247,6.7,11.6,85,0.00,,,0.00,WUHU21623XXSP,2013-02-01 23:44:00,
2013-02-01 18:46:00,17.2,13.4,30.01,WSW,247,6.7,11.6,85,0.00,,,0.00,WUHU21623XXSP,2013-02-01 23:46:00,
2013-02-01 18:48:00,17.2,13.4,30.01,West,270,6.7,11.0,85,0.00,,,0.00,WUHU21623XXSP,2013-02-01 23:48:00,
2013-02-01 18:50:00,17.2,13.4,30.01,NW,315,6.0,6.7,85,0.00,,,0.00,WUHU21623XXSP,2013-02-01 23:50:00,
2013-02-01 18:53:00,17.2,13.4,30.01,NW,315,6.9,6.9,85,0.00,,,0.00,WUHU21623XXSP,2013-02-01 23:53:00,
2013-02-01 18:55:00,17.2,13.1,30.01,WNW,292,9.2,9.2,84,0.00,,,0.00,WUHU21623XXSP,2013-02-01 23:55:00,
2013-02-01 18:57:00,17.2,13.4,30.01,WNW,292,4.7,9.2,85,0.00,,,0.00,WUHU21623XXSP,2013-02-01 23:57:00,
2013-02-01 18:59:00,16.9,13.0,30.02,NW,315,6.9,9.2,85,0.00,,,0.00,WUHU21623XXSP,2013-02-01 23:59:00,
2013-02-01 19:01:00,16.9,13.0,30.02,WNW,292,2.7,9.2,85,0.00,,,0.00,WUHU21623XXSP,2013-02-02 00:01:00,
2013-02-01 19:03:00,16.9,13.0,30.02,WNW,292,5.1,9.2,85,0.00,,,0.00,WUHU21623XXSP,2013-02-02 00:03:00,
2013-02-01 19:05:00,16.9,13.0,30.02,NW,315,7.8,7.8,85,0.00,,,0.00,WUHU21623XXSP,2013-02-02 00:05:00,
2013-02-01 19:07:00,16.9,13.0,30.02,NW,315,7.8,7.8,85,0.00,,,0.00,WUHU21623XXSP,2013-02-02 00:07:00,
2013-02-01 19:10:00,16.9,13.0,30.02,West,270,7.8,7.8,85,0.00,,,0.00,WUHU21623XXSP,2013-02-02 00:10:00,
2013-02-01 19:12:00,16.9,13.0,30.02,West,270,7.8,7.8,85,0.00,,,0.00,WUHU21623XXSP,2013-02-02 00:12:00,
2013-02-01 19:14:00,16.9,13.0,30.02,WNW,292,10.1,10.1,85,0.00,,,0.00,WUHU21623XXSP,2013-02-02 00:14:00,
2013-02-01 19:16:00,16.9,13.0,30.02,WNW,292,7.4,10.1,85,0.00,,,0.00,WUHU21623XXSP,2013-02-02 00:16:00,
2013-02-01 19:18:00,16.9,13.0,30.02,NW,315,5.8,10.1,85,0.00,,,0.00,WUHU21623XXSP,2013-02-02 00:18:00,
2013-02-01 19:20:00,16.9,13.0,30.02,WNW,292,9.2,10.1,85,0.00,,,0.00,WUHU21623XXSP,2013-02-02 00:20:00,
2013-02-01 19:22:00,16.9,13.0,30.02,NW,315,6.3,10.1,85,0.00,,,0.00,WUHU21623XXSP,2013-02-02 00:22:00,
2013-02-01 19:25:00,16.7,12.9,30.02,WNW,292,7.2,9.2,85,0.00,,,0.00,WUHU21623XXSP,2013-02-02 00:25:00,
2013-02-01 19:27:00,16.7,12.9,30.02,WNW,292,7.2,9.2,85,0.00,,,0.00,WUHU21623XXSP,2013-02-02 00:27:00,
2013-02-01 19:29:00,16.5,12.7,30.02,NW,315,11.2,11.2,85,0.00,,,0.00,WUHU21623XXSP,2013-02-02 00:29:00,
2013-02-01 19:31:00,16.5,12.4,30.02,NW,315,9.6,11.2,84,0.00,,,0.00,WUHU21623XXSP,2013-02-02 00:31:00,
2013-02-01 19:33:00,16.5,12.4,30.03,NW,315,9.8,11.2,84,0.00,,,0.00,WUHU21623XXSP,2013-02-02 00:33:00,
2013-02-01 19:35:00,16.5,12.4,30.03,West,270,6.3,11.2,84,0.00,,,0.00,WUHU21623XXSP,2013-02-02 00:35:00,
2013-02-01 19:37:00,16.5,12.4,30.02,NW,315,6.3,11.2,84,0.00,,,0.00,WUHU21623XXSP,2013-02-02 00:37:00,
2013-02-01 19:40:00,16.5,12.7,30.03,WNW,292,13.6,13.6,85,0.00,,,0.00,WUHU21623XXSP,2013-02-02 00:40:00,
2013-02-01 19:42:00,16.5,12.4,30.02,WNW,292,7.8,13.6,84,0.00,,,0.00,WUHU21623XXSP,2013-02-02 00:42:00,
2013-02-01 19:44:00,16.5,12.7,30.02,WNW,292,17.7,17.7,85,0.00,,,0.00,WUHU21623XXSP,2013-02-02 00:44:00,
2013-02-01 19:46:00,16.5,12.7,30.03,NW,315,5.6,17.7,85,0.00,,,0.00,WUHU21623XXSP,2013-02-02 00:46:00,
2013-02-01 19:48:00,16.5,12.7,30.03,West,270,9.4,17.7,85,0.00,,,0.00,WUHU21623XXSP,2013-02-02 00:48:00,
2013-02-01 19:50:00,16.5,12.7,30.03,West,270,9.4,17.7,85,0.00,,,0.00,WUHU21623XXSP,2013-02-02 00:50:00,
2013-02-01 19:52:00,16.5,12.7,30.03,West,270,9.4,17.7,85,0.00,,,0.00,WUHU21623XXSP,2013-02-02 00:52:00,
2013-02-01 19:55:00,16.5,12.7,30.03,WNW,292,10.7,10.7,85,0.00,,,0.00,WUHU21623XXSP,2013-02-02 00:55:00,
2013-02-01 19:57:00,16.5,12.7,30.03,WNW,292,6.3,10.7,85,0.00,,,0.00,WUHU21623XXSP,2013-02-02 00:57:00,
2013-02-01 19:59:00,16.5,12.7,30.03,WSW,247,7.6,10.7,85,0.00,,,0.00,WUHU21623XXSP,2013-02-02 00:59:00,
2013-02-01 20:01:00,16.5,12.7,30.03,West,270,4.9,10.7,85,0.00,,,0.00,WUHU21623XXSP,2013-02-02 01:01:00,
2013-02-01 20:03:00,16.5,12.7,30.03,West,270,10.1,10.7,85,0.00,,,0.00,WUHU21623XXSP,2013-02-02 01:03:00,
2013-02-01 20:05:00,16.7,12.9,30.03,WNW,292,5.8,10.1,85,0.00,,,0.00,WUHU21623XXSP,2013-02-02 01:05:00,
2013-02-01 20:07:00,16.7,12.9,30.03,WNW,292,9.4,10.1,85,0.00,,,0.00,WUHU21623XXSP,2013-02-02 01:07:00,
2013-02-01 20:10:00,16.7,12.9,30.04,NW,315,4.9,10.1,85,0.00,,,0.00,WUHU21623XXSP,2013-02-02 01:10:00,
2013-02-01 20:12:00,16.5,12.7,30.04,WNW,292,7.4,10.1,85,0.00,,,0.00,WUHU21623XXSP,2013-02-02 01:12:00,
2013-02-01 20:14:00,16.5,12.7,30.04,WNW,292,7.4,9.4,85,0.00,,,0.00,WUHU21623XXSP,2013-02-02 01:14:00,
2013-02-01 20:16:00,16.5,12.7,30.04,WNW,292,15.7,15.7,85,0.00,,,0.00,WUHU21623XXSP,2013-02-02 01:16:00,
2013-02-01 20:18:00,16.5,12.7,30.04,West,270,11.4,15.7,85,0.00,,,0.00,WUHU21623XXSP,2013-02-02 01:18:00,
2013-02-01 20:20:00,16.5,12.7,30.04,West,270,7.4,15.7,85,0.00,,,0.00,WUHU21623XXSP,2013-02-02 01:20:00,
2013-02-01 20:22:00,16.5,12.4,30.04,West,270,7.4,15.7,84,0.00,,,0.00,WUHU21623XXSP,2013-02-02 01:22:00,
2013-02-01 20:24:00,16.5,12.4,30.04,NW,315,11.0,15.7,84,0.00,,,0.00,WUHU21623XXSP,2013-02-02 01:24:00,
2013-02-01 20:27:00,16.5,12.4,30.04,SW,225,4.7,11.4,84,0.00,,,0.00,WUHU21623XXSP,2013-02-02 01:27:00,
2013-02-01 20:29:00,16.5,12.4,30.04,WNW,292,9.4,11.0,84,0.00,,,0.00,WUHU21623XXSP,2013-02-02 01:29:00,
2013-02-01 20:31:00,16.3,12.3,30.04,WNW,292,9.4,11.0,84,0.00,,,0.00,WUHU21623XXSP,2013-02-02 01:31:00,
2013-02-01 20:33:00,16.3,12.3,30.05,NNW,337,16.1,16.1,84,0.00,,,0.00,WUHU21623XXSP,2013-02-02 01:33:00,
2013-02-01 20:35:00,16.3,12.3,30.05,NW,315,11.0,16.1,84,0.00,,,0.00,WUHU21623XXSP,2013-02-02 01:35:00,
2013-02-01 20:37:00,16.2,12.1,30.05,NW,315,8.5,16.1,84,0.00,,,0.00,WUHU21623XXSP,2013-02-02 01:37:00,
2013-02-01 20:40:00,16.2,12.1,30.05,NW,315,9.6,16.1,84,0.00,,,0.00,WUHU21623XXSP,2013-02-02 01:40:00,
2013-02-01 20:42:00,16.0,11.9,30.05,NW,315,7.2,16.1,84,0.00,,,0.00,WUHU21623XXSP,2013-02-02 01:42:00,
2013-02-01 20:44:00,15.8,11.8,30.05,WNW,292,6.9,11.0,84,0.00,,,0.00,WUHU21623XXSP,2013-02-02 01:44:00,
2013-02-01 20:46:00,15.6,11.3,30.05,West,270,7.2,9.6,83,0.00,,,0.00,WUHU21623XXSP,2013-02-02 01:46:00,
2013-02-01 20:48:00,15.6,11.3,30.05,NW,315,7.4,9.6,83,0.00,,,0.00,WUHU21623XXSP,2013-02-02 01:48:00,
2013-02-01 20:50:00,15.6,11.3,30.05,WNW,292,7.2,7.4,83,0.00,,,0.00,WUHU21623XXSP,2013-02-02 01:50:00,
2013-02-01 20:52:00,15.6,11.3,30.05,WNW,292,7.2,7.4,83,0.00,,,0.00,WUHU21623XXSP,2013-02-02 01:52:00,
2013-02-01 20:54:00,15.6,11.3,30.05,WNW,292,7.2,7.4,83,0.00,,,0.00,WUHU21623XXSP,2013-02-02 01:54:00,
2013-02-01 20:57:00,15.6,11.3,30.06,WNW,292,12.8,12.8,83,0.00,,,0.00,WUHU21623XXSP,2013-02-02 01:57:00,
2013-02-01 20:59:00,15.6,11.3,30.06,North,0,11.2,12.8,83,0.00,,,0.00,WUHU21623XXSP,2013-02-02 01:59:00,
2013-02-01 21:01:00,15.4,11.2,30.06,North,0,11.2,12.8,83,0.00,,,0.00,WUHU21623XXSP,2013-02-02 02:01:00,
2013-02-01 21:03:00,15.4,11.2,30.05,NNW,337,9.4,12.8,83,0.00,,,0.00,WUHU21623XXSP,2013-02-02 02:03:00,
2013-02-01 21:05:00,15.4,11.2,30.06,NNW,337,9.4,12.8,83,0.00,,,0.00,WUHU21623XXSP,2013-02-02 02:05:00,
2013-02-01 21:07:00,15.3,11.0,30.06,NW,315,7.6,11.2,83,0.00,,,0.00,WUHU21623XXSP,2013-02-02 02:07:00,
2013-02-01 21:09:00,15.3,11.0,30.06,NNW,337,4.9,11.2,83,0.00,,,0.00,WUHU21623XXSP,2013-02-02 02:09:00,
2013-02-01 21:12:00,15.3,11.0,30.06,NW,315,10.7,10.7,83,0.00,,,0.00,WUHU21623XXSP,2013-02-02 02:12:00,
2013-02-01 21:14:00,15.1,10.8,30.06,NNW,337,8.3,10.7,83,0.00,,,0.00,WUHU21623XXSP,2013-02-02 02:14:00,
2013-02-01 21:16:00,15.1,10.5,30.06,NW,315,6.5,10.7,82,0.00,,,0.00,WUHU21623XXSP,2013-02-02 02:16:00,
2013-02-01 21:18:00,15.1,10.5,30.07,NNW,337,8.7,10.7,82,0.00,,,0.00,WUHU21623XXSP,2013-02-02 02:18:00,
2013-02-01 21:20:00,15.1,10.5,30.07,NW,315,3.1,10.7,82,0.00,,,0.00,WUHU21623XXSP,2013-02-02 02:20:00,
2013-02-01 21:22:00,15.1,10.5,30.07,NNW,337,7.2,8.7,82,0.00,,,0.00,WUHU21623XXSP,2013-02-02 02:22:00,
2013-02-01 21:25:00,15.1,10.5,30.07,NW,315,7.4,8.7,82,0.00,,,0.00,WUHU21623XXSP,2013-02-02 02:25:00,
2013-02-01 21:27:00,15.1,10.5,30.07,NNW,337,6.5,8.7,82,0.00,,,0.00,WUHU21623XXSP,2013-02-02 02:27:00,
2013-02-01 21:29:00,15.1,10.5,30.07,NNW,337,4.7,7.4,82,0.00,,,0.00,WUHU21623XXSP,2013-02-02 02:29:00,
2013-02-01 21:31:00,14.9,10.1,30.07,NNW,337,10.5,10.5,81,0.00,,,0.00,WUHU21623XXSP,2013-02-02 02:31:00,
2013-02-01 21:33:00,14.9,10.4,30.07,NW,315,3.8,10.5,82,0.00,,,0.00,WUHU21623XXSP,2013-02-02 02:33:00,
2013-02-01 21:35:00,14.9,10.4,30.07,NW,315,15.9,15.9,82,0.00,,,0.00,WUHU21623XXSP,2013-02-02 02:35:00,
2013-02-01 21:37:00,14.7,9.9,30.08,NNW,337,9.6,15.9,81,0.00,,,0.00,WUHU21623XXSP,2013-02-02 02:37:00,
2013-02-01 21:39:00,14.7,9.9,30.08,NNW,337,9.6,15.9,81,0.00,,,0.00,WUHU21623XXSP,2013-02-02 02:39:00,
2013-02-01 21:42:00,14.7,9.9,30.08,NNW,337,9.6,15.9,81,0.00,,,0.00,WUHU21623XXSP,2013-02-02 02:42:00,
2013-02-01 21:44:00,14.7,9.7,30.08,NW,315,10.3,15.9,80,0.00,,,0.00,WUHU21623XXSP,2013-02-02 02:44:00,
2013-02-01 21:46:00,14.7,9.7,30.07,NW,315,10.3,10.3,80,0.00,,,0.00,WUHU21623XXSP,2013-02-02 02:46:00,
2013-02-01 21:48:00,14.7,9.7,30.07,NW,315,10.3,10.3,80,0.00,,,0.00,WUHU21623XXSP,2013-02-02 02:48:00,
2013-02-01 21:50:00,14.5,9.8,30.08,NW,315,7.6,10.3,81,0.00,,,0.00,WUHU21623XXSP,2013-02-02 02:50:00,
2013-02-01 21:52:00,14.5,9.8,30.07,NW,315,7.6,10.3,81,0.00,,,0.00,WUHU21623XXSP,2013-02-02 02:52:00,
2013-02-01 21:54:00,14.5,9.8,30.07,NW,315,7.6,10.3,81,0.00,,,0.00,WUHU21623XXSP,2013-02-02 02:54:00,
2013-02-01 21:57:00,14.4,8.7,30.08,NW,315,7.4,10.3,78,0.00,,,0.00,WUHU21623XXSP,2013-02-02 02:57:00,
2013-02-01 21:59:00,14.2,8.5,30.08,NW,315,4.0,7.6,78,0.00,,,0.00,WUHU21623XXSP,2013-02-02 02:59:00,
2013-02-01 22:01:00,14.2,8.5,30.08,NNW,337,4.9,7.6,78,0.00,,,0.00,WUHU21623XXSP,2013-02-02 03:01:00,
2013-02-01 22:03:00,13.8,8.2,30.08,NW,315,10.7,10.7,78,0.00,,,0.00,WUHU21623XXSP,2013-02-02 03:03:00,
2013-02-01 22:05:00,13.8,8.2,30.08,NW,315,5.6,10.7,78,0.00,,,0.00,WUHU21623XXSP,2013-02-02 03:05:00,
2013-02-01 22:07:00,13.8,8.2,30.08,NNW,337,1.1,10.7,78,0.00,,,0.00,WUHU21623XXSP,2013-02-02 03:07:00,
2013-02-01 22:09:00,13.8,8.2,30.08,NNW,337,6.5,10.7,78,0.00,,,0.00,WUHU21623XXSP,2013-02-02 03:09:00,
2013-02-01 22:12:00,13.6,7.7,30.08,NNW,337,7.4,10.7,77,0.00,,,0.00,WUHU21623XXSP,2013-02-02 03:12:00,
2013-02-01 22:14:00,13.6,7.7,30.09,NNW,337,7.2,7.4,77,0.00,,,0.00,WUHU21623XXSP,2013-02-02 03:14:00,
2013-02-01 22:16:00,13.6,7.7,30.08,NNW,337,9.8,9.8,77,0.00,,,0.00,WUHU21623XXSP,2013-02-02 03:16:00,
2013-02-01 22:18:00,13.6,7.7,30.08,NNW,337,12.8,12.8,77,0.00,,,0.00,WUHU21623XXSP,2013-02-02 03:18:00,
2013-02-01 22:20:00,13.6,7.7,30.08,NNW,337,5.8,12.8,77,0.00,,,0.00,WUHU21623XXSP,2013-02-02 03:20:00,
2013-02-01 22:22:00,13.6,8.0,30.09,NNW,337,5.1,12.8,78,0.00,,,0.00,WUHU21623XXSP,2013-02-02 03:22:00,
2013-02-01 22:24:00,13.5,7.6,30.09,NW,315,6.9,12.8,77,0.00,,,0.00,WUHU21623XXSP,2013-02-02 03:24:00,
2013-02-01 22:26:00,13.3,7.7,30.09,NNW,337,4.0,12.8,78,0.00,,,0.00,WUHU21623XXSP,2013-02-02 03:26:00,
2013-02-01 22:29:00,13.3,7.7,30.09,NW,315,5.8,6.9,78,0.00,,,0.00,WUHU21623XXSP,2013-02-02 03:29:00,
2013-02-01 22:31:00,13.3,7.7,30.10,NW,315,7.4,7.4,78,0.00,,,0.00,WUHU21623XXSP,2013-02-02 03:31:00,
2013-02-01 22:33:00,13.5,7.8,30.10,NW,315,3.8,7.4,78,0.00,,,0.00,WUHU21623XXSP,2013-02-02 03:33:00,
2013-02-01 22:35:00,13.6,8.0,30.10,NW,315,4.9,7.4,78,0.00,,,0.00,WUHU21623XXSP,2013-02-02 03:35:00,
2013-02-01 22:37:00,13.5,7.8,30.10,NW,315,6.0,7.4,78,0.00,,,0.00,WUHU21623XXSP,2013-02-02 03:37:00,
2013-02-01 22:39:00,13.3,8.0,30.10,WNW,292,3.1,7.4,79,0.00,,,0.00,WUHU21623XXSP,2013-02-02 03:39:00,
2013-02-01 22:42:00,13.3,8.0,30.10,WNW,292,1.6,6.0,79,0.00,,,0.00,WUHU21623XXSP,2013-02-02 03:42:00,
2013-02-01 22:44:00,13.3,8.0,30.10,NW,315,2.5,6.0,79,0.00,,,0.00,WUHU21623XXSP,2013-02-02 03:44:00,
2013-02-01 22:46:00,13.1,7.8,30.10,WNW,292,3.8,6.0,79,0.00,,,0.00,WUHU21623XXSP,2013-02-02 03:46:00,
2013-02-01 22:48:00,13.1,7.8,30.10,WNW,292,1.3,3.8,79,0.00,,,0.00,WUHU21623XXSP,2013-02-02 03:48:00,
2013-02-01 22:50:00,12.9,7.6,30.10,WSW,247,6.7,6.7,79,0.00,,,0.00,WUHU21623XXSP,2013-02-02 03:50:00,
2013-02-01 22:52:00,12.9,7.6,30.11,NW,315,0.0,6.7,79,0.00,,,0.00,WUHU21623XXSP,2013-02-02 03:52:00,
2013-02-01 22:54:00,12.9,7.9,30.11,NW,315,0.0,6.7,80,0.00,,,0.00,WUHU21623XXSP,2013-02-02 03:54:00,
2013-02-01 22:57:00,12.9,7.9,30.11,NW,315,3.1,6.7,80,0.00,,,0.00,WUHU21623XXSP,2013-02-02 03:57:00,
2013-02-01 22:59:00,12.9,7.9,30.11,WNW,292,0.0,6.7,80,0.00,,,0.00,WUHU21623XXSP,2013-02-02 03:59:00,
2013-02-01 23:01:00,12.9,7.9,30.11,WNW,292,2.0,3.1,80,0.00,,,0.00,WUHU21623XXSP,2013-02-02 04:01:00,
2013-02-01 23:03:00,12.9,7.9,30.11,NW,315,3.4,3.4,80,0.00,,,0.00,WUHU21623XXSP,2013-02-02 04:03:00,
2013-02-01 23:05:00,12.7,7.7,30.11,WNW,292,2.7,3.4,80,0.00,,,0.00,WUHU21623XXSP,2013-02-02 04:05:00,
2013-02-01 23:07:00,12.7,7.7,30.11,WNW,292,0.0,3.4,80,0.00,,,0.00,WUHU21623XXSP,2013-02-02 04:07:00,
2013-02-01 23:09:00,12.7,7.7,30.11,West,270,2.2,3.4,80,0.00,,,0.00,WUHU21623XXSP,2013-02-02 04:09:00,
2013-02-01 23:12:00,12.7,7.4,30.11,WNW,292,3.6,3.6,79,0.00,,,0.00,WUHU21623XXSP,2013-02-02 04:12:00,
2013-02-01 23:14:00,12.7,7.4,30.11,NNW,337,2.0,3.6,79,0.00,,,0.00,WUHU21623XXSP,2013-02-02 04:14:00,
2013-02-01 23:16:00,12.7,7.4,30.11,NW,315,1.1,3.6,79,0.00,,,0.00,WUHU21623XXSP,2013-02-02 04:16:00,
2013-02-01 23:18:00,12.7,7.4,30.11,NW,315,6.3,6.3,79,0.00,,,0.00,WUHU21623XXSP,2013-02-02 04:18:00,
2013-02-01 23:20:00,12.7,7.4,30.11,WNW,292,3.4,6.3,79,0.00,,,0.00,WUHU21623XXSP,2013-02-02 04:20:00,
2013-02-01 23:22:00,12.9,7.6,30.11,NW,315,6.0,6.3,79,0.00,,,0.00,WUHU21623XXSP,2013-02-02 04:22:00,
2013-02-01 23:24:00,12.9,7.9,30.12,NW,315,3.1,6.3,80,0.00,,,0.00,WUHU21623XXSP,2013-02-02 04:24:00,
2013-02-01 23:26:00,12.9,7.6,30.12,WNW,292,1.6,6.3,79,0.00,,,0.00,WUHU21623XXSP,2013-02-02 04:26:00,
2013-02-01 23:29:00,12.7,7.7,30.12,NNW,337,6.3,6.3,80,0.00,,,0.00,WUHU21623XXSP,2013-02-02 04:29:00,
2013-02-01 23:31:00,12.7,7.4,30.12,NW,315,5.6,6.3,79,0.00,,,0.00,WUHU21623XXSP,2013-02-02 04:31:00,
2013-02-01 23:33:00,12.7,7.7,30.12,WNW,292,0.0,6.3,80,0.00,,,0.00,WUHU21623XXSP,2013-02-02 04:33:00,
2013-02-01 23:35:00,12.7,7.7,30.12,WNW,292,0.0,6.3,80,0.00,,,0.00,WUHU21623XXSP,2013-02-02 04:35:00,
2013-02-01 23:37:00,12.7,7.7,30.12,WNW,292,0.0,6.3,80,0.00,,,0.00,WUHU21623XXSP,2013-02-02 04:37:00,
2013-02-01 23:39:00,12.7,8.0,30.12,WNW,292,2.7,5.6,81,0.00,,,0.00,WUHU21623XXSP,2013-02-02 04:39:00,
2013-02-01 23:41:00,12.7,7.7,30.12,NNW,337,2.0,2.7,80,0.00,,,0.00,WUHU21623XXSP,2013-02-02 04:41:00,
2013-02-01 23:45:00,12.7,7.7,30.12,NNW,337,2.0,2.7,80,0.00,,,0.00,WUHU21623XXSP,2013-02-02 04:45:00,
2013-02-01 23:47:00,12.7,7.7,30.12,NW,315,0.0,2.7,80,0.00,,,0.00,WUHU21623XXSP,2013-02-02 04:47:00,
2013-02-01 23:48:00,12.7,7.7,30.12,NNW,337,0.0,2.7,80,0.00,,,0.00,WUHU21623XXSP,2013-02-02 04:48:00,
2013-02-01 23:50:00,12.6,7.5,30.12,NW,315,3.6,3.6,80,0.00,,,0.00,WUHU21623XXSP,2013-02-02 04:50:00,
2013-02-01 23:52:00,12.4,7.3,30.12,NW,315,0.0,3.6,80,0.00,,,0.00,WUHU21623XXSP,2013-02-02 04:52:00,
2013-02-01 23:54:00,12.4,7.3,30.12,NW,315,3.1,3.6,80,0.00,,,0.00,WUHU21623XXSP,2013-02-02 04:54:00,
2013-02-01 23:56:00,12.2,7.2,30.12,WNW,292,0.9,3.6,80,0.00,,,0.00,WUHU21623XXSP,2013-02-02 04:56:00,
2013-02-01 23:59:00,12.2,7.2,30.12,NW,315,1.8,3.6,80,0.00,,,0.00,WUHU21623XXSP,2013-02-02 04:59:00,